<?xml version="1.0" encoding="UTF-8" standalone="no" ?>
<gpx xmlns="http://www.topografix.com/GPX/1/1" xmlns:xsi="http://www.w3.org/2001/XMLSchema-instance" xsi:schemaLocation="http://www.topografix.com/GPX/1/1 http://www.topografix.com/GPX/1/1/gpx.xsd" version="1.1" creator="VisuGPX - https://www.visugpx.com">
  <metadata>
    <name>VILLEREAL-14juillet</name>
  </metadata>
  <trk>
    <name><![CDATA[P3 - Monbazillac - Targon]]></name>
    <extensions>
      <line xmlns="http://www.topografix.com/GPX/gpx_style/0/2">
        <color>ff0000</color>
        <width>4</width>
      </line>
    </extensions>
    <trkseg>
      <trkpt lat="44.79378" lon="0.49149">
        <ele>167.329132</ele>
        <time>2022-07-11T19:09:44.719Z</time>
      </trkpt>
      <trkpt lat="44.79384" lon="0.49149">
        <ele>167.351059</ele>
        <time>2022-07-11T19:09:45.582Z</time>
      </trkpt>
      <trkpt lat="44.794" lon="0.49162">
        <ele>167.409169</ele>
        <time>2022-07-11T19:09:48.652Z</time>
      </trkpt>
      <trkpt lat="44.79438" lon="0.49211">
        <ele>165.343407</ele>
        <time>2022-07-11T19:09:56.110Z</time>
      </trkpt>
      <trkpt lat="44.79482" lon="0.49234">
        <ele>163.424228</ele>
        <time>2022-07-11T19:10:02.372Z</time>
      </trkpt>
      <trkpt lat="44.79524" lon="0.49238">
        <ele>161.730226</ele>
        <time>2022-07-11T19:10:07.596Z</time>
      </trkpt>
      <trkpt lat="44.79588" lon="0.4921">
        <ele>158.161382</ele>
        <time>2022-07-11T19:10:15.834Z</time>
      </trkpt>
      <trkpt lat="44.79664" lon="0.49227">
        <ele>152.782704</ele>
        <time>2022-07-11T19:10:24.872Z</time>
      </trkpt>
      <trkpt lat="44.79698" lon="0.49229">
        <ele>150.383029</ele>
        <time>2022-07-11T19:10:28.990Z</time>
      </trkpt>
      <trkpt lat="44.79746" lon="0.49204">
        <ele>146.488642</ele>
        <time>2022-07-11T19:10:35.407Z</time>
      </trkpt>
      <trkpt lat="44.79781" lon="0.49195">
        <ele>143.155456</ele>
        <time>2022-07-11T19:10:39.497Z</time>
      </trkpt>
      <trkpt lat="44.79812" lon="0.49208">
        <ele>140.142842</ele>
        <time>2022-07-11T19:10:43.160Z</time>
      </trkpt>
      <trkpt lat="44.79866" lon="0.49278">
        <ele>133.210289</ele>
        <time>2022-07-11T19:10:51.449Z</time>
      </trkpt>
      <trkpt lat="44.7989" lon="0.49301">
        <ele>130.43185</ele>
        <time>2022-07-11T19:10:54.727Z</time>
      </trkpt>
      <trkpt lat="44.79909" lon="0.49304">
        <ele>128.461367</ele>
        <time>2022-07-11T19:10:56.826Z</time>
      </trkpt>
      <trkpt lat="44.79927" lon="0.49298">
        <ele>126.524249</ele>
        <time>2022-07-11T19:10:58.948Z</time>
      </trkpt>
      <trkpt lat="44.79978" lon="0.49274">
        <ele>120.928447</ele>
        <time>2022-07-11T19:11:04.920Z</time>
      </trkpt>
      <trkpt lat="44.80109" lon="0.49213">
        <ele>107.6721</ele>
        <time>2022-07-11T19:11:20.737Z</time>
      </trkpt>
      <trkpt lat="44.80226" lon="0.49192">
        <ele>98.022768</ele>
        <time>2022-07-11T19:11:34.626Z</time>
      </trkpt>
      <trkpt lat="44.80256" lon="0.49189">
        <ele>95.492021</ele>
        <time>2022-07-11T19:11:38.235Z</time>
      </trkpt>
      <trkpt lat="44.80487" lon="0.49214">
        <ele>76.965477</ele>
        <time>2022-07-11T19:12:05.177Z</time>
      </trkpt>
      <trkpt lat="44.80489" lon="0.49147">
        <ele>72</ele>
      </trkpt>
      <trkpt lat="44.80517" lon="0.49061">
        <ele>70.6</ele>
      </trkpt>
      <trkpt lat="44.80625" lon="0.48919">
        <ele>69.4</ele>
      </trkpt>
      <trkpt lat="44.80646" lon="0.4887">
        <ele>68.2</ele>
      </trkpt>
      <trkpt lat="44.80617" lon="0.48653">
        <ele>67.6</ele>
      </trkpt>
      <trkpt lat="44.80599" lon="0.48419">
        <ele>66.5</ele>
      </trkpt>
      <trkpt lat="44.80588" lon="0.48353">
        <ele>64.6</ele>
      </trkpt>
      <trkpt lat="44.80703" lon="0.4831">
        <ele>60.9</ele>
      </trkpt>
      <trkpt lat="44.80735" lon="0.48282">
        <ele>60</ele>
      </trkpt>
      <trkpt lat="44.80725" lon="0.48061">
        <ele>57</ele>
      </trkpt>
      <trkpt lat="44.80704" lon="0.47911">
        <ele>56.7</ele>
      </trkpt>
      <trkpt lat="44.80735" lon="0.47741">
        <ele>55.6</ele>
      </trkpt>
      <trkpt lat="44.80741" lon="0.47404">
        <ele>55.6</ele>
      </trkpt>
      <trkpt lat="44.80792" lon="0.46945">
        <ele>56</ele>
      </trkpt>
      <trkpt lat="44.809" lon="0.46441">
        <ele>56.6</ele>
      </trkpt>
      <trkpt lat="44.80969" lon="0.4602">
        <ele>56.4</ele>
      </trkpt>
      <trkpt lat="44.81009" lon="0.45735">
        <ele>56.2</ele>
      </trkpt>
      <trkpt lat="44.81138" lon="0.45458">
        <ele>56.5</ele>
      </trkpt>
      <trkpt lat="44.81152" lon="0.45383">
        <ele>57.5</ele>
      </trkpt>
      <trkpt lat="44.81146" lon="0.45132">
        <ele>57.8</ele>
      </trkpt>
      <trkpt lat="44.81147" lon="0.44898">
        <ele>57.7</ele>
      </trkpt>
      <trkpt lat="44.81179" lon="0.44806">
        <ele>56.6</ele>
      </trkpt>
      <trkpt lat="44.81283" lon="0.44508">
        <ele>52.8</ele>
      </trkpt>
      <trkpt lat="44.81368" lon="0.44353">
        <ele>52.8</ele>
      </trkpt>
      <trkpt lat="44.81467" lon="0.4416">
        <ele>51.2</ele>
      </trkpt>
      <trkpt lat="44.81493" lon="0.43928">
        <ele>50.7</ele>
      </trkpt>
      <trkpt lat="44.81532" lon="0.43613">
        <ele>50.8</ele>
      </trkpt>
      <trkpt lat="44.81552" lon="0.43411">
        <ele>51.1</ele>
      </trkpt>
      <trkpt lat="44.81517" lon="0.43248">
        <ele>51.4</ele>
      </trkpt>
      <trkpt lat="44.81488" lon="0.43134">
        <ele>53.5</ele>
      </trkpt>
      <trkpt lat="44.81478" lon="0.43031">
        <ele>53.751437</ele>
        <time>2022-07-11T19:45:01.301Z</time>
      </trkpt>
      <trkpt lat="44.81479" lon="0.43015">
        <ele>53.982795</ele>
        <time>2022-07-11T19:45:03.952Z</time>
      </trkpt>
      <trkpt lat="44.81489" lon="0.42856">
        <ele>55.07736</ele>
        <time>2022-07-11T19:45:27.655Z</time>
      </trkpt>
      <trkpt lat="44.8149" lon="0.42709">
        <ele>55.417405</ele>
        <time>2022-07-11T19:45:46.020Z</time>
      </trkpt>
      <trkpt lat="44.81482" lon="0.42611">
        <ele>55.520627</ele>
        <time>2022-07-11T19:45:58.678Z</time>
      </trkpt>
      <trkpt lat="44.81482" lon="0.4261">
        <ele>55.521779</ele>
        <time>2022-07-11T19:45:58.844Z</time>
      </trkpt>
      <trkpt lat="44.81481" lon="0.42604">
        <ele>55.52735</ele>
        <time>2022-07-11T19:45:59.632Z</time>
      </trkpt>
      <trkpt lat="44.81477" lon="0.42533">
        <ele>55.595396</ele>
        <time>2022-07-11T19:46:09.288Z</time>
      </trkpt>
      <trkpt lat="44.81477" lon="0.42511">
        <ele>55.616565</ele>
        <time>2022-07-11T19:46:12.244Z</time>
      </trkpt>
      <trkpt lat="44.81477" lon="0.42497">
        <ele>55.630202</ele>
        <time>2022-07-11T19:46:14.182Z</time>
      </trkpt>
      <trkpt lat="44.81477" lon="0.42455">
        <ele>55.670062</ele>
        <time>2022-07-11T19:46:19.589Z</time>
      </trkpt>
      <trkpt lat="44.81477" lon="0.42441">
        <ele>55.687809</ele>
        <time>2022-07-11T19:46:21.285Z</time>
      </trkpt>
      <trkpt lat="44.81472" lon="0.4235">
        <ele>55.837186</ele>
        <time>2022-07-11T19:46:32.924Z</time>
      </trkpt>
      <trkpt lat="44.81467" lon="0.42271">
        <ele>55.965181</ele>
        <time>2022-07-11T19:46:43.282Z</time>
      </trkpt>
      <trkpt lat="44.81462" lon="0.4221">
        <ele>56.065234</ele>
        <time>2022-07-11T19:46:51.537Z</time>
      </trkpt>
      <trkpt lat="44.81437" lon="0.41868">
        <ele>56.902151</ele>
        <time>2022-07-11T19:47:40.460Z</time>
      </trkpt>
      <trkpt lat="44.8143" lon="0.41777">
        <ele>56.7204</ele>
        <time>2022-07-11T19:47:51.476Z</time>
      </trkpt>
      <trkpt lat="44.81426" lon="0.41697">
        <ele>56.562055</ele>
        <time>2022-07-11T19:48:00.666Z</time>
      </trkpt>
      <trkpt lat="44.81428" lon="0.41572">
        <ele>56.092505</ele>
        <time>2022-07-11T19:48:14.946Z</time>
      </trkpt>
      <trkpt lat="44.81416" lon="0.41472">
        <ele>55.703915</ele>
        <time>2022-07-11T19:48:26.725Z</time>
      </trkpt>
      <trkpt lat="44.8135" lon="0.41153">
        <ele>56.306408</ele>
        <time>2022-07-11T19:49:13.846Z</time>
      </trkpt>
      <trkpt lat="44.81255" lon="0.40609">
        <ele>55.000903</ele>
        <time>2022-07-11T19:50:21.816Z</time>
      </trkpt>
      <trkpt lat="44.8125" lon="0.4055">
        <ele>54.645419</ele>
        <time>2022-07-11T19:50:28.526Z</time>
      </trkpt>
      <trkpt lat="44.8125" lon="0.40484">
        <ele>54.244975</ele>
        <time>2022-07-11T19:50:35.878Z</time>
      </trkpt>
      <trkpt lat="44.81252" lon="0.40425">
        <ele>53.69263</ele>
        <time>2022-07-11T19:50:42.278Z</time>
      </trkpt>
      <trkpt lat="44.81254" lon="0.40359">
        <ele>52.864282</ele>
        <time>2022-07-11T19:50:49.320Z</time>
      </trkpt>
      <trkpt lat="44.81257" lon="0.40196">
        <ele>50.844811</ele>
        <time>2022-07-11T19:51:06.441Z</time>
      </trkpt>
      <trkpt lat="44.81258" lon="0.4016">
        <ele>50.484966</ele>
        <time>2022-07-11T19:51:10.235Z</time>
      </trkpt>
      <trkpt lat="44.8126" lon="0.40099">
        <ele>49.88586</ele>
        <time>2022-07-11T19:51:16.591Z</time>
      </trkpt>
      <trkpt lat="44.81262" lon="0.40008">
        <ele>48.977427</ele>
        <time>2022-07-11T19:51:26.574Z</time>
      </trkpt>
      <trkpt lat="44.81263" lon="0.39972">
        <ele>48.6136</ele>
        <time>2022-07-11T19:51:30.714Z</time>
      </trkpt>
      <trkpt lat="44.81264" lon="0.39922">
        <ele>48.229306</ele>
        <time>2022-07-11T19:51:36.405Z</time>
      </trkpt>
      <trkpt lat="44.81261" lon="0.39844">
        <ele>47.775042</ele>
        <time>2022-07-11T19:51:45.476Z</time>
      </trkpt>
      <trkpt lat="44.81245" lon="0.39779">
        <ele>47.379613</ele>
        <time>2022-07-11T19:51:53.397Z</time>
      </trkpt>
      <trkpt lat="44.81088" lon="0.39364">
        <ele>44.568129</ele>
        <time>2022-07-11T19:52:47.352Z</time>
      </trkpt>
      <trkpt lat="44.81005" lon="0.39145">
        <ele>43.119674</ele>
        <time>2022-07-11T19:53:15.475Z</time>
      </trkpt>
      <trkpt lat="44.80995" lon="0.39117">
        <ele>42.942617</ele>
        <time>2022-07-11T19:53:19.155Z</time>
      </trkpt>
      <trkpt lat="44.80981" lon="0.39033">
        <ele>42.467471</ele>
        <time>2022-07-11T19:53:29.164Z</time>
      </trkpt>
      <trkpt lat="44.80971" lon="0.3894">
        <ele>42.393692</ele>
        <time>2022-07-11T19:53:40.372Z</time>
      </trkpt>
      <trkpt lat="44.80963" lon="0.38295">
        <ele>42.380592</ele>
        <time>2022-07-11T19:55:02.202Z</time>
      </trkpt>
      <trkpt lat="44.81012" lon="0.37972">
        <ele>43.600312</ele>
        <time>2022-07-11T19:55:49.965Z</time>
      </trkpt>
      <trkpt lat="44.8102" lon="0.37912">
        <ele>43.775505</ele>
        <time>2022-07-11T19:55:58.441Z</time>
      </trkpt>
      <trkpt lat="44.81028" lon="0.37855">
        <ele>43.94426</ele>
        <time>2022-07-11T19:56:06.329Z</time>
      </trkpt>
      <trkpt lat="44.81036" lon="0.37802">
        <ele>44.100223</ele>
        <time>2022-07-11T19:56:13.404Z</time>
      </trkpt>
      <trkpt lat="44.81051" lon="0.37708">
        <ele>44.580914</ele>
        <time>2022-07-11T19:56:26.706Z</time>
      </trkpt>
      <trkpt lat="44.81055" lon="0.37604">
        <ele>45.188972</ele>
        <time>2022-07-11T19:56:41.536Z</time>
      </trkpt>
      <trkpt lat="44.81057" lon="0.37275">
        <ele>47.897971</ele>
        <time>2022-07-11T19:57:36.614Z</time>
      </trkpt>
      <trkpt lat="44.81023" lon="0.36945">
        <ele>47.830974</ele>
        <time>2022-07-11T19:58:20.927Z</time>
      </trkpt>
      <trkpt lat="44.81013" lon="0.36834">
        <ele>46.778103</ele>
        <time>2022-07-11T19:58:32.943Z</time>
      </trkpt>
      <trkpt lat="44.81013" lon="0.36739">
        <ele>45.508429</ele>
        <time>2022-07-11T19:58:42.576Z</time>
      </trkpt>
      <trkpt lat="44.81021" lon="0.36648">
        <ele>43.402492</ele>
        <time>2022-07-11T19:58:51.421Z</time>
      </trkpt>
      <trkpt lat="44.81075" lon="0.36377">
        <ele>37.315642</ele>
        <time>2022-07-11T19:59:18.269Z</time>
      </trkpt>
      <trkpt lat="44.81101" lon="0.36251">
        <ele>34.930593</ele>
        <time>2022-07-11T19:59:31.885Z</time>
      </trkpt>
      <trkpt lat="44.81123" lon="0.36185">
        <ele>34.306578</ele>
        <time>2022-07-11T19:59:39.739Z</time>
      </trkpt>
      <trkpt lat="44.81131" lon="0.36163">
        <ele>34.094214</ele>
        <time>2022-07-11T19:59:42.515Z</time>
      </trkpt>
      <trkpt lat="44.81204" lon="0.35976">
        <ele>32.833321</ele>
        <time>2022-07-11T20:00:07.052Z</time>
      </trkpt>
      <trkpt lat="44.81234" lon="0.35837">
        <ele>32.578517</ele>
        <time>2022-07-11T20:00:24.891Z</time>
      </trkpt>
      <trkpt lat="44.81238" lon="0.35751">
        <ele>32.889018</ele>
        <time>2022-07-11T20:00:37.122Z</time>
      </trkpt>
      <trkpt lat="44.81213" lon="0.35597">
        <ele>33.839363</ele>
        <time>2022-07-11T20:01:02.074Z</time>
      </trkpt>
      <trkpt lat="44.81211" lon="0.35581">
        <ele>33.938882</ele>
        <time>2022-07-11T20:01:04.687Z</time>
      </trkpt>
      <trkpt lat="44.81198" lon="0.35453">
        <ele>34.555136</ele>
        <time>2022-07-11T20:01:23.769Z</time>
      </trkpt>
      <trkpt lat="44.81194" lon="0.35405">
        <ele>34.777752</ele>
        <time>2022-07-11T20:01:30.488Z</time>
      </trkpt>
      <trkpt lat="44.81194" lon="0.35331">
        <ele>35.116965</ele>
        <time>2022-07-11T20:01:41.197Z</time>
      </trkpt>
      <trkpt lat="44.81199" lon="0.35205">
        <ele>35.683116</ele>
        <time>2022-07-11T20:01:58.121Z</time>
      </trkpt>
      <trkpt lat="44.81202" lon="0.35131">
        <ele>36.017866</ele>
        <time>2022-07-11T20:02:08.585Z</time>
      </trkpt>
      <trkpt lat="44.8121" lon="0.34843">
        <ele>38.302444</ele>
        <time>2022-07-11T20:02:54.360Z</time>
      </trkpt>
      <trkpt lat="44.81214" lon="0.34653">
        <ele>40.673311</ele>
        <time>2022-07-11T20:03:28.240Z</time>
      </trkpt>
      <trkpt lat="44.81213" lon="0.34386">
        <ele>44.385923</ele>
        <time>2022-07-11T20:04:17.562Z</time>
      </trkpt>
      <trkpt lat="44.81211" lon="0.34103">
        <ele>47.931879</ele>
        <time>2022-07-11T20:05:08.310Z</time>
      </trkpt>
      <trkpt lat="44.81202" lon="0.33997">
        <ele>48.779211</ele>
        <time>2022-07-11T20:05:25.582Z</time>
      </trkpt>
      <trkpt lat="44.81166" lon="0.33792">
        <ele>49.393623</ele>
        <time>2022-07-11T20:05:54.043Z</time>
      </trkpt>
      <trkpt lat="44.81145" lon="0.33731">
        <ele>49.109748</ele>
        <time>2022-07-11T20:06:02.041Z</time>
      </trkpt>
      <trkpt lat="44.81124" lon="0.33686">
        <ele>48.888085</ele>
        <time>2022-07-11T20:06:08.170Z</time>
      </trkpt>
      <trkpt lat="44.80997" lon="0.33527">
        <ele>48.15103</ele>
        <time>2022-07-11T20:06:35.759Z</time>
      </trkpt>
      <trkpt lat="44.80982" lon="0.33493">
        <ele>48.079979</ele>
        <time>2022-07-11T20:06:40.580Z</time>
      </trkpt>
      <trkpt lat="44.80976" lon="0.33459">
        <ele>48.016462</ele>
        <time>2022-07-11T20:06:45.034Z</time>
      </trkpt>
      <trkpt lat="44.80974" lon="0.33439">
        <ele>47.980724</ele>
        <time>2022-07-11T20:06:47.542Z</time>
      </trkpt>
      <trkpt lat="44.80974" lon="0.3339">
        <ele>47.918991</ele>
        <time>2022-07-11T20:06:54.060Z</time>
      </trkpt>
      <trkpt lat="44.80982" lon="0.3334">
        <ele>48.48736</ele>
        <time>2022-07-11T20:07:01.997Z</time>
      </trkpt>
      <trkpt lat="44.81027" lon="0.33196">
        <ele>50.259985</ele>
        <time>2022-07-11T20:07:29.749Z</time>
      </trkpt>
      <trkpt lat="44.81039" lon="0.33155">
        <ele>50.751165</ele>
        <time>2022-07-11T20:07:38.133Z</time>
      </trkpt>
      <trkpt lat="44.81047" lon="0.33095">
        <ele>51.567563</ele>
        <time>2022-07-11T20:07:49.728Z</time>
      </trkpt>
      <trkpt lat="44.81045" lon="0.32981">
        <ele>53.101919</ele>
        <time>2022-07-11T20:08:11.308Z</time>
      </trkpt>
      <trkpt lat="44.81035" lon="0.32855">
        <ele>54.228569</ele>
        <time>2022-07-11T20:08:32.223Z</time>
      </trkpt>
      <trkpt lat="44.81041" lon="0.32787">
        <ele>54.350049</ele>
        <time>2022-07-11T20:08:42.154Z</time>
      </trkpt>
      <trkpt lat="44.81118" lon="0.32439">
        <ele>53.735536</ele>
        <time>2022-07-11T20:09:25.676Z</time>
      </trkpt>
      <trkpt lat="44.81163" lon="0.32236">
        <ele>52.382975</ele>
        <time>2022-07-11T20:09:49.793Z</time>
      </trkpt>
      <trkpt lat="44.81177" lon="0.32165">
        <ele>51.873387</ele>
        <time>2022-07-11T20:09:58.101Z</time>
      </trkpt>
      <trkpt lat="44.81188" lon="0.32117">
        <ele>51.432049</ele>
        <time>2022-07-11T20:10:03.790Z</time>
      </trkpt>
      <trkpt lat="44.81287" lon="0.31663">
        <ele>47.014262</ele>
        <time>2022-07-11T20:10:55.734Z</time>
      </trkpt>
      <trkpt lat="44.81314" lon="0.31511">
        <ele>45.724765</ele>
        <time>2022-07-11T20:11:12.593Z</time>
      </trkpt>
      <trkpt lat="44.81402" lon="0.31085">
        <ele>45.325365</ele>
        <time>2022-07-11T20:12:05.822Z</time>
      </trkpt>
      <trkpt lat="44.8131" lon="0.31058">
        <ele>46.404996</ele>
        <time>2022-07-11T20:12:37.055Z</time>
      </trkpt>
      <trkpt lat="44.81279" lon="0.30987">
        <ele>49.275076</ele>
        <time>2022-07-11T20:12:57.350Z</time>
      </trkpt>
      <trkpt lat="44.81271" lon="0.30983">
        <ele>49.674976</ele>
        <time>2022-07-11T20:13:00.312Z</time>
      </trkpt>
      <trkpt lat="44.81252" lon="0.30937">
        <ele>51.528962</ele>
        <time>2022-07-11T20:13:15.371Z</time>
      </trkpt>
      <trkpt lat="44.81306" lon="0.30889">
        <ele>54.644858</ele>
        <time>2022-07-11T20:13:43.349Z</time>
      </trkpt>
      <trkpt lat="44.81323" lon="0.30868">
        <ele>56.309113</ele>
        <time>2022-07-11T20:13:54.861Z</time>
      </trkpt>
      <trkpt lat="44.81299" lon="0.30857">
        <ele>58.796092</ele>
        <time>2022-07-11T20:14:08.173Z</time>
      </trkpt>
      <trkpt lat="44.81179" lon="0.30666">
        <ele>75.993913</ele>
        <time>2022-07-11T20:15:57.634Z</time>
      </trkpt>
      <trkpt lat="44.81168" lon="0.30656">
        <ele>77.100048</ele>
        <time>2022-07-11T20:16:06.115Z</time>
      </trkpt>
      <trkpt lat="44.81137" lon="0.30648">
        <ele>79.825927</ele>
        <time>2022-07-11T20:16:24.889Z</time>
      </trkpt>
      <trkpt lat="44.81127" lon="0.30629">
        <ele>81.210961</ele>
        <time>2022-07-11T20:16:33.744Z</time>
      </trkpt>
      <trkpt lat="44.81123" lon="0.30608">
        <ele>82.562637</ele>
        <time>2022-07-11T20:16:41.751Z</time>
      </trkpt>
      <trkpt lat="44.81134" lon="0.30517">
        <ele>88.151047</ele>
        <time>2022-07-11T20:17:10.655Z</time>
      </trkpt>
      <trkpt lat="44.8114" lon="0.30492">
        <ele>89.220589</ele>
        <time>2022-07-11T20:17:19.119Z</time>
      </trkpt>
      <trkpt lat="44.81233" lon="0.3039">
        <ele>95.937187</ele>
        <time>2022-07-11T20:18:06.353Z</time>
      </trkpt>
      <trkpt lat="44.81238" lon="0.30367">
        <ele>96.87896</ele>
        <time>2022-07-11T20:18:13.256Z</time>
      </trkpt>
      <trkpt lat="44.81232" lon="0.30348">
        <ele>97.746235</ele>
        <time>2022-07-11T20:18:19.708Z</time>
      </trkpt>
      <trkpt lat="44.81222" lon="0.30334">
        <ele>98.57702</ele>
        <time>2022-07-11T20:18:25.046Z</time>
      </trkpt>
      <trkpt lat="44.81168" lon="0.30319">
        <ele>102.041924</ele>
        <time>2022-07-11T20:18:48.277Z</time>
      </trkpt>
      <trkpt lat="44.81153" lon="0.30312">
        <ele>103.021771</ele>
        <time>2022-07-11T20:18:54.963Z</time>
      </trkpt>
      <trkpt lat="44.81142" lon="0.30296">
        <ele>104.034365</ele>
        <time>2022-07-11T20:19:02.501Z</time>
      </trkpt>
      <trkpt lat="44.81107" lon="0.30212">
        <ele>108.408918</ele>
        <time>2022-07-11T20:19:35.125Z</time>
      </trkpt>
      <trkpt lat="44.81057" lon="0.30126">
        <ele>112.465419</ele>
        <time>2022-07-11T20:20:07.911Z</time>
      </trkpt>
      <trkpt lat="44.81039" lon="0.3008">
        <ele>114.218727</ele>
        <time>2022-07-11T20:20:22.497Z</time>
      </trkpt>
      <trkpt lat="44.8101" lon="0.30022">
        <ele>116.593638</ele>
        <time>2022-07-11T20:20:40.259Z</time>
      </trkpt>
      <trkpt lat="44.80957" lon="0.29952">
        <ele>119.067237</ele>
        <time>2022-07-11T20:21:03.004Z</time>
      </trkpt>
      <trkpt lat="44.80909" lon="0.29871">
        <ele>120.764738</ele>
        <time>2022-07-11T20:21:22.538Z</time>
      </trkpt>
      <trkpt lat="44.80886" lon="0.29817">
        <ele>121.791398</ele>
        <time>2022-07-11T20:21:34.064Z</time>
      </trkpt>
      <trkpt lat="44.80885" lon="0.29723">
        <ele>123.11973</ele>
        <time>2022-07-11T20:21:51.713Z</time>
      </trkpt>
      <trkpt lat="44.80871" lon="0.29716">
        <ele>123.38216</ele>
        <time>2022-07-11T20:21:55.774Z</time>
      </trkpt>
      <trkpt lat="44.8084" lon="0.29666">
        <ele>124.265489</ele>
        <time>2022-07-11T20:22:08.940Z</time>
      </trkpt>
      <trkpt lat="44.80805" lon="0.29593">
        <ele>125.430549</ele>
        <time>2022-07-11T20:22:26.257Z</time>
      </trkpt>
      <trkpt lat="44.80717" lon="0.29472">
        <ele>124.403662</ele>
        <time>2022-07-11T20:22:49.295Z</time>
      </trkpt>
      <trkpt lat="44.80652" lon="0.29401">
        <ele>122.956207</ele>
        <time>2022-07-11T20:23:01.188Z</time>
      </trkpt>
      <trkpt lat="44.80643" lon="0.2938">
        <ele>122.127033</ele>
        <time>2022-07-11T20:23:03.518Z</time>
      </trkpt>
      <trkpt lat="44.80637" lon="0.29317">
        <ele>119.933399</ele>
        <time>2022-07-11T20:23:09.448Z</time>
      </trkpt>
      <trkpt lat="44.8059" lon="0.29162">
        <ele>114.438694</ele>
        <time>2022-07-11T20:23:25.110Z</time>
      </trkpt>
      <trkpt lat="44.80586" lon="0.29073">
        <ele>112.47836</ele>
        <time>2022-07-11T20:23:33.932Z</time>
      </trkpt>
      <trkpt lat="44.80556" lon="0.29027">
        <ele>111.105224</ele>
        <time>2022-07-11T20:23:40.473Z</time>
      </trkpt>
      <trkpt lat="44.8044" lon="0.2888">
        <ele>107.334522</ele>
        <time>2022-07-11T20:24:05.259Z</time>
      </trkpt>
      <trkpt lat="44.80456" lon="0.28834">
        <ele>106.588235</ele>
        <time>2022-07-11T20:24:10.755Z</time>
      </trkpt>
      <trkpt lat="44.80455" lon="0.28807">
        <ele>106.209093</ele>
        <time>2022-07-11T20:24:13.516Z</time>
      </trkpt>
      <trkpt lat="44.80447" lon="0.28782">
        <ele>105.802779</ele>
        <time>2022-07-11T20:24:16.430Z</time>
      </trkpt>
      <trkpt lat="44.80432" lon="0.28756">
        <ele>105.323433</ele>
        <time>2022-07-11T20:24:19.901Z</time>
      </trkpt>
      <trkpt lat="44.80417" lon="0.28714">
        <ele>104.659707</ele>
        <time>2022-07-11T20:24:24.808Z</time>
      </trkpt>
      <trkpt lat="44.80404" lon="0.28667">
        <ele>103.951686</ele>
        <time>2022-07-11T20:24:30.123Z</time>
      </trkpt>
      <trkpt lat="44.80394" lon="0.28627">
        <ele>103.350535</ele>
        <time>2022-07-11T20:24:34.775Z</time>
      </trkpt>
      <trkpt lat="44.80385" lon="0.28581">
        <ele>102.679476</ele>
        <time>2022-07-11T20:24:40.088Z</time>
      </trkpt>
      <trkpt lat="44.80377" lon="0.28566">
        <ele>102.416345</ele>
        <time>2022-07-11T20:24:42.184Z</time>
      </trkpt>
      <trkpt lat="44.8035" lon="0.28574">
        <ele>102.117101</ele>
        <time>2022-07-11T20:24:46.934Z</time>
      </trkpt>
      <trkpt lat="44.80344" lon="0.28576">
        <ele>102.111233</ele>
        <time>2022-07-11T20:24:48.026Z</time>
      </trkpt>
      <trkpt lat="44.803" lon="0.28589">
        <ele>102.071089</ele>
        <time>2022-07-11T20:24:56.049Z</time>
      </trkpt>
      <trkpt lat="44.8022" lon="0.28609">
        <ele>101.998471</ele>
        <time>2022-07-11T20:25:12.479Z</time>
      </trkpt>
      <trkpt lat="44.80163" lon="0.28612">
        <ele>101.582482</ele>
        <time>2022-07-11T20:25:24.194Z</time>
      </trkpt>
      <trkpt lat="44.80145" lon="0.28606">
        <ele>101.266262</ele>
        <time>2022-07-11T20:25:27.571Z</time>
      </trkpt>
      <trkpt lat="44.80034" lon="0.28536">
        <ele>99.233171</ele>
        <time>2022-07-11T20:25:46.480Z</time>
      </trkpt>
      <trkpt lat="44.79991" lon="0.28522">
        <ele>97.567406</ele>
        <time>2022-07-11T20:25:52.628Z</time>
      </trkpt>
      <trkpt lat="44.79931" lon="0.28502">
        <ele>94.562241</ele>
        <time>2022-07-11T20:26:00.877Z</time>
      </trkpt>
      <trkpt lat="44.79885" lon="0.28486">
        <ele>92.174848</ele>
        <time>2022-07-11T20:26:07.172Z</time>
      </trkpt>
      <trkpt lat="44.79858" lon="0.28459">
        <ele>90.55725</ele>
        <time>2022-07-11T20:26:11.407Z</time>
      </trkpt>
      <trkpt lat="44.79822" lon="0.28371">
        <ele>86.301687</ele>
        <time>2022-07-11T20:26:20.633Z</time>
      </trkpt>
      <trkpt lat="44.79675" lon="0.2817">
        <ele>74.958354</ele>
        <time>2022-07-11T20:26:47.138Z</time>
      </trkpt>
      <trkpt lat="44.79586" lon="0.28087">
        <ele>70.009205</ele>
        <time>2022-07-11T20:27:01.751Z</time>
      </trkpt>
      <trkpt lat="44.79572" lon="0.28061">
        <ele>69.269499</ele>
        <time>2022-07-11T20:27:05.253Z</time>
      </trkpt>
      <trkpt lat="44.79561" lon="0.28014">
        <ele>68.184147</ele>
        <time>2022-07-11T20:27:10.351Z</time>
      </trkpt>
      <trkpt lat="44.79553" lon="0.28006">
        <ele>67.881842</ele>
        <time>2022-07-11T20:27:11.721Z</time>
      </trkpt>
      <trkpt lat="44.7955" lon="0.27981">
        <ele>67.332094</ele>
        <time>2022-07-11T20:27:14.175Z</time>
      </trkpt>
      <trkpt lat="44.79531" lon="0.27938">
        <ele>66.180718</ele>
        <time>2022-07-11T20:27:19.280Z</time>
      </trkpt>
      <trkpt lat="44.79522" lon="0.2788">
        <ele>64.869379</ele>
        <time>2022-07-11T20:27:25.081Z</time>
      </trkpt>
      <trkpt lat="44.79527" lon="0.27856">
        <ele>64.436023</ele>
        <time>2022-07-11T20:27:27.473Z</time>
      </trkpt>
      <trkpt lat="44.79555" lon="0.27775">
        <ele>62.928479</ele>
        <time>2022-07-11T20:27:36.257Z</time>
      </trkpt>
      <trkpt lat="44.79569" lon="0.27648">
        <ele>60.78978</ele>
        <time>2022-07-11T20:27:49.630Z</time>
      </trkpt>
      <trkpt lat="44.79589" lon="0.27617">
        <ele>60.264209</ele>
        <time>2022-07-11T20:27:54.257Z</time>
      </trkpt>
      <trkpt lat="44.79677" lon="0.27574">
        <ele>58.886209</ele>
        <time>2022-07-11T20:28:09.349Z</time>
      </trkpt>
      <trkpt lat="44.79748" lon="0.2756">
        <ele>57.699808</ele>
        <time>2022-07-11T20:28:20.006Z</time>
      </trkpt>
      <trkpt lat="44.79787" lon="0.2756">
        <ele>56.295732</ele>
        <time>2022-07-11T20:28:25.675Z</time>
      </trkpt>
      <trkpt lat="44.79784" lon="0.27543">
        <ele>55.862335</ele>
        <time>2022-07-11T20:28:27.143Z</time>
      </trkpt>
      <trkpt lat="44.79772" lon="0.27536">
        <ele>55.38209</ele>
        <time>2022-07-11T20:28:29.486Z</time>
      </trkpt>
      <trkpt lat="44.79697" lon="0.27521">
        <ele>52.660482</ele>
        <time>2022-07-11T20:28:39.924Z</time>
      </trkpt>
      <trkpt lat="44.79682" lon="0.27508">
        <ele>52.047759</ele>
        <time>2022-07-11T20:28:42.067Z</time>
      </trkpt>
      <trkpt lat="44.79673" lon="0.27491">
        <ele>51.500792</ele>
        <time>2022-07-11T20:28:44.385Z</time>
      </trkpt>
      <trkpt lat="44.79662" lon="0.27422">
        <ele>50.352842</ele>
        <time>2022-07-11T20:28:51.222Z</time>
      </trkpt>
      <trkpt lat="44.79645" lon="0.27369">
        <ele>49.423518</ele>
        <time>2022-07-11T20:28:57.418Z</time>
      </trkpt>
      <trkpt lat="44.79533" lon="0.27217">
        <ele>48.066946</ele>
        <time>2022-07-11T20:29:23.447Z</time>
      </trkpt>
      <trkpt lat="44.79497" lon="0.27185">
        <ele>48.485926</ele>
        <time>2022-07-11T20:29:33.134Z</time>
      </trkpt>
      <trkpt lat="44.79484" lon="0.27155">
        <ele>48.734383</ele>
        <time>2022-07-11T20:29:39.532Z</time>
      </trkpt>
      <trkpt lat="44.79481" lon="0.2711">
        <ele>49.050402</ele>
        <time>2022-07-11T20:29:48.616Z</time>
      </trkpt>
      <trkpt lat="44.79474" lon="0.27084">
        <ele>49.430143</ele>
        <time>2022-07-11T20:29:54.503Z</time>
      </trkpt>
      <trkpt lat="44.79447" lon="0.2705">
        <ele>51.200507</ele>
        <time>2022-07-11T20:30:06.747Z</time>
      </trkpt>
      <trkpt lat="44.79431" lon="0.27041">
        <ele>52.040237</ele>
        <time>2022-07-11T20:30:12.904Z</time>
      </trkpt>
      <trkpt lat="44.79326" lon="0.27027">
        <ele>57.10995</ele>
        <time>2022-07-11T20:30:55.639Z</time>
      </trkpt>
      <trkpt lat="44.79234" lon="0.26994">
        <ele>61.336119</ele>
        <time>2022-07-11T20:31:35.894Z</time>
      </trkpt>
      <trkpt lat="44.79143" lon="0.26972">
        <ele>65.330301</ele>
        <time>2022-07-11T20:32:06.905Z</time>
      </trkpt>
      <trkpt lat="44.79128" lon="0.26968">
        <ele>65.774677</ele>
        <time>2022-07-11T20:32:11.372Z</time>
      </trkpt>
      <trkpt lat="44.79003" lon="0.26925">
        <ele>67.379038</ele>
        <time>2022-07-11T20:32:40.165Z</time>
      </trkpt>
      <trkpt lat="44.78913" lon="0.26963">
        <ele>68.23093</ele>
        <time>2022-07-11T20:32:59.620Z</time>
      </trkpt>
      <trkpt lat="44.78862" lon="0.26955">
        <ele>68.545477</ele>
        <time>2022-07-11T20:33:11.093Z</time>
      </trkpt>
      <trkpt lat="44.78778" lon="0.26924">
        <ele>69.00898</ele>
        <time>2022-07-11T20:33:29.513Z</time>
      </trkpt>
      <trkpt lat="44.78691" lon="0.2691">
        <ele>68.889747</ele>
        <time>2022-07-11T20:33:45.414Z</time>
      </trkpt>
      <trkpt lat="44.78655" lon="0.2689">
        <ele>68.836548</ele>
        <time>2022-07-11T20:33:52.546Z</time>
      </trkpt>
      <trkpt lat="44.78632" lon="0.26907">
        <ele>68.800699</ele>
        <time>2022-07-11T20:33:56.720Z</time>
      </trkpt>
      <trkpt lat="44.78584" lon="0.2691">
        <ele>68.665914</ele>
        <time>2022-07-11T20:34:04.945Z</time>
      </trkpt>
      <trkpt lat="44.78566" lon="0.26905">
        <ele>68.596397</ele>
        <time>2022-07-11T20:34:07.809Z</time>
      </trkpt>
      <trkpt lat="44.78565" lon="0.26904">
        <ele>68.592125</ele>
        <time>2022-07-11T20:34:08.010Z</time>
      </trkpt>
      <trkpt lat="44.78545" lon="0.2689">
        <ele>68.508921</ele>
        <time>2022-07-11T20:34:11.858Z</time>
      </trkpt>
      <trkpt lat="44.78539" lon="0.26884">
        <ele>68.482032</ele>
        <time>2022-07-11T20:34:12.987Z</time>
      </trkpt>
      <trkpt lat="44.78521" lon="0.26871">
        <ele>68.407337</ele>
        <time>2022-07-11T20:34:16.444Z</time>
      </trkpt>
      <trkpt lat="44.78491" lon="0.26857">
        <ele>68.288919</ele>
        <time>2022-07-11T20:34:21.602Z</time>
      </trkpt>
      <trkpt lat="44.7846" lon="0.26862">
        <ele>68.173795</ele>
        <time>2022-07-11T20:34:27.318Z</time>
      </trkpt>
      <trkpt lat="44.784" lon="0.26889">
        <ele>68.080741</ele>
        <time>2022-07-11T20:34:39.208Z</time>
      </trkpt>
      <trkpt lat="44.78381" lon="0.26893">
        <ele>68.069646</ele>
        <time>2022-07-11T20:34:42.613Z</time>
      </trkpt>
      <trkpt lat="44.78356" lon="0.2689">
        <ele>68.054993</ele>
        <time>2022-07-11T20:34:46.853Z</time>
      </trkpt>
      <trkpt lat="44.7832" lon="0.26869">
        <ele>68.032451</ele>
        <time>2022-07-11T20:34:53.465Z</time>
      </trkpt>
      <trkpt lat="44.78294" lon="0.26861">
        <ele>68.016892</ele>
        <time>2022-07-11T20:34:58.071Z</time>
      </trkpt>
      <trkpt lat="44.78159" lon="0.26851">
        <ele>69.563008</ele>
        <time>2022-07-11T20:35:23.404Z</time>
      </trkpt>
      <trkpt lat="44.78141" lon="0.2685">
        <ele>69.811509</ele>
        <time>2022-07-11T20:35:27.611Z</time>
      </trkpt>
      <trkpt lat="44.78136" lon="0.26849">
        <ele>69.889658</ele>
        <time>2022-07-11T20:35:29.062Z</time>
      </trkpt>
      <trkpt lat="44.78031" lon="0.26842">
        <ele>73.870659</ele>
        <time>2022-07-11T20:36:03.281Z</time>
      </trkpt>
      <trkpt lat="44.77816" lon="0.2677">
        <ele>86.588434</ele>
        <time>2022-07-11T20:37:43.592Z</time>
      </trkpt>
      <trkpt lat="44.77734" lon="0.26774">
        <ele>91.235765</ele>
        <time>2022-07-11T20:38:14.454Z</time>
      </trkpt>
      <trkpt lat="44.77662" lon="0.26757">
        <ele>92.88755</ele>
        <time>2022-07-11T20:38:36.224Z</time>
      </trkpt>
      <trkpt lat="44.77571" lon="0.26671">
        <ele>95.287771</ele>
        <time>2022-07-11T20:39:01.866Z</time>
      </trkpt>
      <trkpt lat="44.7749" lon="0.26525">
        <ele>96.037929</ele>
        <time>2022-07-11T20:39:28.514Z</time>
      </trkpt>
      <trkpt lat="44.77375" lon="0.26297">
        <ele>96.540537</ele>
        <time>2022-07-11T20:40:04.302Z</time>
      </trkpt>
      <trkpt lat="44.7734" lon="0.26254">
        <ele>96.791623</ele>
        <time>2022-07-11T20:40:13.153Z</time>
      </trkpt>
      <trkpt lat="44.77281" lon="0.26222">
        <ele>97.431977</ele>
        <time>2022-07-11T20:40:26.167Z</time>
      </trkpt>
      <trkpt lat="44.77031" lon="0.26122">
        <ele>100.720256</ele>
        <time>2022-07-11T20:41:27.731Z</time>
      </trkpt>
      <trkpt lat="44.76927" lon="0.26072">
        <ele>101.855865</ele>
        <time>2022-07-11T20:41:52.327Z</time>
      </trkpt>
      <trkpt lat="44.7688" lon="0.26033">
        <ele>102.384776</ele>
        <time>2022-07-11T20:42:03.514Z</time>
      </trkpt>
      <trkpt lat="44.76789" lon="0.25908">
        <ele>103.628847</ele>
        <time>2022-07-11T20:42:29.432Z</time>
      </trkpt>
      <trkpt lat="44.76764" lon="0.25854">
        <ele>104.077907</ele>
        <time>2022-07-11T20:42:39.324Z</time>
      </trkpt>
      <trkpt lat="44.76742" lon="0.25621">
        <ele>107.028718</ele>
        <time>2022-07-11T20:43:20.855Z</time>
      </trkpt>
      <trkpt lat="44.76715" lon="0.2549">
        <ele>109.407039</ele>
        <time>2022-07-11T20:43:47.701Z</time>
      </trkpt>
      <trkpt lat="44.76669" lon="0.25395">
        <ele>111.837601</ele>
        <time>2022-07-11T20:44:13.397Z</time>
      </trkpt>
      <trkpt lat="44.76635" lon="0.25361">
        <ele>113.073461</ele>
        <time>2022-07-11T20:44:26.027Z</time>
      </trkpt>
      <trkpt lat="44.76622" lon="0.25349">
        <ele>113.529135</ele>
        <time>2022-07-11T20:44:30.454Z</time>
      </trkpt>
      <trkpt lat="44.76578" lon="0.25308">
        <ele>115.031266</ele>
        <time>2022-07-11T20:44:45.705Z</time>
      </trkpt>
      <trkpt lat="44.76537" lon="0.25281">
        <ele>116.30758</ele>
        <time>2022-07-11T20:44:59.033Z</time>
      </trkpt>
      <trkpt lat="44.76497" lon="0.25243">
        <ele>117.67156</ele>
        <time>2022-07-11T20:45:13.482Z</time>
      </trkpt>
      <trkpt lat="44.76448" lon="0.25216">
        <ele>118.969541</ele>
        <time>2022-07-11T20:45:28.663Z</time>
      </trkpt>
      <trkpt lat="44.76457" lon="0.25202">
        <ele>119.232197</ele>
        <time>2022-07-11T20:45:31.995Z</time>
      </trkpt>
      <trkpt lat="44.76458" lon="0.25187">
        <ele>119.457809</ele>
        <time>2022-07-11T20:45:34.981Z</time>
      </trkpt>
      <trkpt lat="44.76427" lon="0.25182">
        <ele>120.075303</ele>
        <time>2022-07-11T20:45:42.703Z</time>
      </trkpt>
      <trkpt lat="44.76359" lon="0.25155">
        <ele>121.472453</ele>
        <time>2022-07-11T20:46:00.051Z</time>
      </trkpt>
      <trkpt lat="44.76342" lon="0.25149">
        <ele>121.821835</ele>
        <time>2022-07-11T20:46:04.387Z</time>
      </trkpt>
      <trkpt lat="44.76308" lon="0.25104">
        <ele>122.375014</ele>
        <time>2022-07-11T20:46:16.770Z</time>
      </trkpt>
      <trkpt lat="44.76289" lon="0.2508">
        <ele>122.598894</ele>
        <time>2022-07-11T20:46:22.618Z</time>
      </trkpt>
      <trkpt lat="44.76239" lon="0.25014">
        <ele>123.204574</ele>
        <time>2022-07-11T20:46:37.233Z</time>
      </trkpt>
      <trkpt lat="44.762" lon="0.24956">
        <ele>123.622083</ele>
        <time>2022-07-11T20:46:47.555Z</time>
      </trkpt>
      <trkpt lat="44.76209" lon="0.24938">
        <ele>123.518372</ele>
        <time>2022-07-11T20:46:50.122Z</time>
      </trkpt>
      <trkpt lat="44.76217" lon="0.24899">
        <ele>123.331926</ele>
        <time>2022-07-11T20:46:55.030Z</time>
      </trkpt>
      <trkpt lat="44.76218" lon="0.24788">
        <ele>122.824445</ele>
        <time>2022-07-11T20:47:07.877Z</time>
      </trkpt>
      <trkpt lat="44.76216" lon="0.24682">
        <ele>122.406458</ele>
        <time>2022-07-11T20:47:19.649Z</time>
      </trkpt>
      <trkpt lat="44.76303" lon="0.24381">
        <ele>122.629425</ele>
        <time>2022-07-11T20:47:59.537Z</time>
      </trkpt>
      <trkpt lat="44.76304" lon="0.24324">
        <ele>123.060571</ele>
        <time>2022-07-11T20:48:09.022Z</time>
      </trkpt>
      <trkpt lat="44.76307" lon="0.24207">
        <ele>124.204225</ele>
        <time>2022-07-11T20:48:30.841Z</time>
      </trkpt>
      <trkpt lat="44.76303" lon="0.24079">
        <ele>126.480448</ele>
        <time>2022-07-11T20:48:58.351Z</time>
      </trkpt>
      <trkpt lat="44.76311" lon="0.2402">
        <ele>127.534115</ele>
        <time>2022-07-11T20:49:10.760Z</time>
      </trkpt>
      <trkpt lat="44.76325" lon="0.2395">
        <ele>128.049816</ele>
        <time>2022-07-11T20:49:23.451Z</time>
      </trkpt>
      <trkpt lat="44.76326" lon="0.23861">
        <ele>127.596542</ele>
        <time>2022-07-11T20:49:36.344Z</time>
      </trkpt>
      <trkpt lat="44.76373" lon="0.23521">
        <ele>122.597665</ele>
        <time>2022-07-11T20:50:11.166Z</time>
      </trkpt>
      <trkpt lat="44.76419" lon="0.23079">
        <ele>111.44917</ele>
        <time>2022-07-11T20:50:53.298Z</time>
      </trkpt>
      <trkpt lat="44.76433" lon="0.23005">
        <ele>109.637234</ele>
        <time>2022-07-11T20:51:01.090Z</time>
      </trkpt>
      <trkpt lat="44.76459" lon="0.22922">
        <ele>107.736921</ele>
        <time>2022-07-11T20:51:10.161Z</time>
      </trkpt>
      <trkpt lat="44.76476" lon="0.22841">
        <ele>106.032409</ele>
        <time>2022-07-11T20:51:18.601Z</time>
      </trkpt>
      <trkpt lat="44.76474" lon="0.22786">
        <ele>104.909843</ele>
        <time>2022-07-11T20:51:24.040Z</time>
      </trkpt>
      <trkpt lat="44.76452" lon="0.22643">
        <ele>101.839328</ele>
        <time>2022-07-11T20:51:38.118Z</time>
      </trkpt>
      <trkpt lat="44.76457" lon="0.2246">
        <ele>97.985478</ele>
        <time>2022-07-11T20:51:56.265Z</time>
      </trkpt>
      <trkpt lat="44.76434" lon="0.22357">
        <ele>95.899178</ele>
        <time>2022-07-11T20:52:07.321Z</time>
      </trkpt>
      <trkpt lat="44.76435" lon="0.22338">
        <ele>95.533564</ele>
        <time>2022-07-11T20:52:09.201Z</time>
      </trkpt>
      <trkpt lat="44.76439" lon="0.22331">
        <ele>95.354968</ele>
        <time>2022-07-11T20:52:10.098Z</time>
      </trkpt>
      <trkpt lat="44.76485" lon="0.22304">
        <ele>94.004275</ele>
        <time>2022-07-11T20:52:17.013Z</time>
      </trkpt>
      <trkpt lat="44.76552" lon="0.22265">
        <ele>91.992201</ele>
        <time>2022-07-11T20:52:26.915Z</time>
      </trkpt>
      <trkpt lat="44.7656" lon="0.22254">
        <ele>91.682892</ele>
        <time>2022-07-11T20:52:28.441Z</time>
      </trkpt>
      <trkpt lat="44.76567" lon="0.22226">
        <ele>91.095499</ele>
        <time>2022-07-11T20:52:31.271Z</time>
      </trkpt>
      <trkpt lat="44.76565" lon="0.22208">
        <ele>90.731128</ele>
        <time>2022-07-11T20:52:33.127Z</time>
      </trkpt>
      <trkpt lat="44.76507" lon="0.22081">
        <ele>88.455612</ele>
        <time>2022-07-11T20:52:48.398Z</time>
      </trkpt>
      <trkpt lat="44.76505" lon="0.22076">
        <ele>88.427589</ele>
        <time>2022-07-11T20:52:48.948Z</time>
      </trkpt>
      <trkpt lat="44.7649" lon="0.22031">
        <ele>88.166632</ele>
        <time>2022-07-11T20:52:54.372Z</time>
      </trkpt>
      <trkpt lat="44.76493" lon="0.21985">
        <ele>87.929512</ele>
        <time>2022-07-11T20:52:59.692Z</time>
      </trkpt>
      <trkpt lat="44.76534" lon="0.2189">
        <ele>87.476614</ele>
        <time>2022-07-11T20:53:14.945Z</time>
      </trkpt>
      <trkpt lat="44.76536" lon="0.21861">
        <ele>87.755296</ele>
        <time>2022-07-11T20:53:19.729Z</time>
      </trkpt>
      <trkpt lat="44.76521" lon="0.21817">
        <ele>88.225628</ele>
        <time>2022-07-11T20:53:27.914Z</time>
      </trkpt>
      <trkpt lat="44.76409" lon="0.2157">
        <ele>90.934983</ele>
        <time>2022-07-11T20:54:17.775Z</time>
      </trkpt>
      <trkpt lat="44.76401" lon="0.2154">
        <ele>91.223021</ele>
        <time>2022-07-11T20:54:23.017Z</time>
      </trkpt>
      <trkpt lat="44.76395" lon="0.21465">
        <ele>91.887104</ele>
        <time>2022-07-11T20:54:35.106Z</time>
      </trkpt>
      <trkpt lat="44.76419" lon="0.21291">
        <ele>92.06259</ele>
        <time>2022-07-11T20:54:59.959Z</time>
      </trkpt>
      <trkpt lat="44.76418" lon="0.21231">
        <ele>92.064197</ele>
        <time>2022-07-11T20:55:07.064Z</time>
      </trkpt>
      <trkpt lat="44.76404" lon="0.21197">
        <ele>92.030077</ele>
        <time>2022-07-11T20:55:11.440Z</time>
      </trkpt>
      <trkpt lat="44.76354" lon="0.2113">
        <ele>91.141041</ele>
        <time>2022-07-11T20:55:21.907Z</time>
      </trkpt>
      <trkpt lat="44.76289" lon="0.20975">
        <ele>89.714926</ele>
        <time>2022-07-11T20:55:41.407Z</time>
      </trkpt>
      <trkpt lat="44.76186" lon="0.2082">
        <ele>89.509662</ele>
        <time>2022-07-11T20:56:10.128Z</time>
      </trkpt>
      <trkpt lat="44.76163" lon="0.20765">
        <ele>89.251792</ele>
        <time>2022-07-11T20:56:19.883Z</time>
      </trkpt>
      <trkpt lat="44.7615" lon="0.20731">
        <ele>89.070464</ele>
        <time>2022-07-11T20:56:24.815Z</time>
      </trkpt>
      <trkpt lat="44.7613" lon="0.20703">
        <ele>88.87568</ele>
        <time>2022-07-11T20:56:29.951Z</time>
      </trkpt>
      <trkpt lat="44.76084" lon="0.20667">
        <ele>88.519798</ele>
        <time>2022-07-11T20:56:38.672Z</time>
      </trkpt>
      <trkpt lat="44.76035" lon="0.20662">
        <ele>88.062659</ele>
        <time>2022-07-11T20:56:46.315Z</time>
      </trkpt>
      <trkpt lat="44.75996" lon="0.20666">
        <ele>87.456882</ele>
        <time>2022-07-11T20:56:52.113Z</time>
      </trkpt>
      <trkpt lat="44.75981" lon="0.20658">
        <ele>87.197526</ele>
        <time>2022-07-11T20:56:54.574Z</time>
      </trkpt>
      <trkpt lat="44.75944" lon="0.20628">
        <ele>86.536037</ele>
        <time>2022-07-11T20:57:00.908Z</time>
      </trkpt>
      <trkpt lat="44.75854" lon="0.20519">
        <ele>86.308883</ele>
        <time>2022-07-11T20:57:21.380Z</time>
      </trkpt>
      <trkpt lat="44.75816" lon="0.20511">
        <ele>86.94505</ele>
        <time>2022-07-11T20:57:30.177Z</time>
      </trkpt>
      <trkpt lat="44.75746" lon="0.20472">
        <ele>88.22189</ele>
        <time>2022-07-11T20:57:52.303Z</time>
      </trkpt>
      <trkpt lat="44.75637" lon="0.20419">
        <ele>91.884541</ele>
        <time>2022-07-11T20:58:30.777Z</time>
      </trkpt>
      <trkpt lat="44.75631" lon="0.20361">
        <ele>93.285714</ele>
        <time>2022-07-11T20:58:44.174Z</time>
      </trkpt>
      <trkpt lat="44.75617" lon="0.20307">
        <ele>94.668478</ele>
        <time>2022-07-11T20:58:56.894Z</time>
      </trkpt>
      <trkpt lat="44.75532" lon="0.2006">
        <ele>98.849637</ele>
        <time>2022-07-11T20:59:49.591Z</time>
      </trkpt>
      <trkpt lat="44.75484" lon="0.19774">
        <ele>101.738964</ele>
        <time>2022-07-11T21:00:39.176Z</time>
      </trkpt>
      <trkpt lat="44.75462" lon="0.19676">
        <ele>102.637229</ele>
        <time>2022-07-11T21:00:54.876Z</time>
      </trkpt>
      <trkpt lat="44.75433" lon="0.19616">
        <ele>103.267346</ele>
        <time>2022-07-11T21:01:06.177Z</time>
      </trkpt>
      <trkpt lat="44.75268" lon="0.19269">
        <ele>111.361382</ele>
        <time>2022-07-11T21:02:33.513Z</time>
      </trkpt>
      <trkpt lat="44.75201" lon="0.19114">
        <ele>115.06452</ele>
        <time>2022-07-11T21:03:17.281Z</time>
      </trkpt>
      <trkpt lat="44.75175" lon="0.19067">
        <ele>116.126734</ele>
        <time>2022-07-11T21:03:30.446Z</time>
      </trkpt>
      <trkpt lat="44.7514" lon="0.19015">
        <ele>117.388107</ele>
        <time>2022-07-11T21:03:45.039Z</time>
      </trkpt>
      <trkpt lat="44.7489" lon="0.18831">
        <ele>116.704456</ele>
        <time>2022-07-11T21:04:35.960Z</time>
      </trkpt>
      <trkpt lat="44.74869" lon="0.1881">
        <ele>116.21644</ele>
        <time>2022-07-11T21:04:39.798Z</time>
      </trkpt>
      <trkpt lat="44.74851" lon="0.18806">
        <ele>115.890136</ele>
        <time>2022-07-11T21:04:42.329Z</time>
      </trkpt>
      <trkpt lat="44.74696" lon="0.18832">
        <ele>113.524274</ele>
        <time>2022-07-11T21:05:05.042Z</time>
      </trkpt>
      <trkpt lat="44.74677" lon="0.1882">
        <ele>113.250584</ele>
        <time>2022-07-11T21:05:08.339Z</time>
      </trkpt>
      <trkpt lat="44.74553" lon="0.18639">
        <ele>114.937186</ele>
        <time>2022-07-11T21:05:49.624Z</time>
      </trkpt>
      <trkpt lat="44.74474" lon="0.18378">
        <ele>120.428644</ele>
        <time>2022-07-11T21:07:00.215Z</time>
      </trkpt>
      <trkpt lat="44.74358" lon="0.18273">
        <ele>121.314089</ele>
        <time>2022-07-11T21:07:26.324Z</time>
      </trkpt>
      <trkpt lat="44.74361" lon="0.18106">
        <ele>120.718639</ele>
        <time>2022-07-11T21:07:45.022Z</time>
      </trkpt>
      <trkpt lat="44.74352" lon="0.18078">
        <ele>120.644544</ele>
        <time>2022-07-11T21:07:48.917Z</time>
      </trkpt>
      <trkpt lat="44.74268" lon="0.17967">
        <ele>120.262602</ele>
        <time>2022-07-11T21:08:11.030Z</time>
      </trkpt>
      <trkpt lat="44.74249" lon="0.17925">
        <ele>120.13287</ele>
        <time>2022-07-11T21:08:17.555Z</time>
      </trkpt>
      <trkpt lat="44.74195" lon="0.17772">
        <ele>119.659265</ele>
        <time>2022-07-11T21:08:39.042Z</time>
      </trkpt>
      <trkpt lat="44.74177" lon="0.17744">
        <ele>119.554618</ele>
        <time>2022-07-11T21:08:43.553Z</time>
      </trkpt>
      <trkpt lat="44.74109" lon="0.17671">
        <ele>119.325388</ele>
        <time>2022-07-11T21:08:58.365Z</time>
      </trkpt>
      <trkpt lat="44.74049" lon="0.17584">
        <ele>119.106659</ele>
        <time>2022-07-11T21:09:13.703Z</time>
      </trkpt>
      <trkpt lat="44.73848" lon="0.17407">
        <ele>120.238579</ele>
        <time>2022-07-11T21:10:04.510Z</time>
      </trkpt>
      <trkpt lat="44.7396" lon="0.17128">
        <ele>119.981074</ele>
        <time>2022-07-11T21:10:44.899Z</time>
      </trkpt>
      <trkpt lat="44.73968" lon="0.17103">
        <ele>119.867209</ele>
        <time>2022-07-11T21:10:48.002Z</time>
      </trkpt>
      <trkpt lat="44.73969" lon="0.1704">
        <ele>119.600976</ele>
        <time>2022-07-11T21:10:55.192Z</time>
      </trkpt>
      <trkpt lat="44.73957" lon="0.16513">
        <ele>114.476526</ele>
        <time>2022-07-11T21:11:52.582Z</time>
      </trkpt>
      <trkpt lat="44.73963" lon="0.16422">
        <ele>113.54673</ele>
        <time>2022-07-11T21:12:02.360Z</time>
      </trkpt>
      <trkpt lat="44.74018" lon="0.1622">
        <ele>111.437286</ele>
        <time>2022-07-11T21:12:25.959Z</time>
      </trkpt>
      <trkpt lat="44.74081" lon="0.15982">
        <ele>109.51602</ele>
        <time>2022-07-11T21:12:54.610Z</time>
      </trkpt>
      <trkpt lat="44.74091" lon="0.15969">
        <ele>109.381347</ele>
        <time>2022-07-11T21:12:56.825Z</time>
      </trkpt>
      <trkpt lat="44.74193" lon="0.15903">
        <ele>108.295244</ele>
        <time>2022-07-11T21:13:14.557Z</time>
      </trkpt>
      <trkpt lat="44.74168" lon="0.15778">
        <ele>107.908908</ele>
        <time>2022-07-11T21:13:30.179Z</time>
      </trkpt>
      <trkpt lat="44.74174" lon="0.15775">
        <ele>107.898511</ele>
        <time>2022-07-11T21:13:31.151Z</time>
      </trkpt>
      <trkpt lat="44.74066" lon="0.15394">
        <ele>107.908601</ele>
        <time>2022-07-11T21:14:25.893Z</time>
      </trkpt>
      <trkpt lat="44.74051" lon="0.15326">
        <ele>107.25451</ele>
        <time>2022-07-11T21:14:34.115Z</time>
      </trkpt>
      <trkpt lat="44.74002" lon="0.14992">
        <ele>103.982985</ele>
        <time>2022-07-11T21:15:10.384Z</time>
      </trkpt>
      <trkpt lat="44.73968" lon="0.14871">
        <ele>103.103046</ele>
        <time>2022-07-11T21:15:25.173Z</time>
      </trkpt>
      <trkpt lat="44.73962" lon="0.14852">
        <ele>103.125399</ele>
        <time>2022-07-11T21:15:27.685Z</time>
      </trkpt>
      <trkpt lat="44.7396" lon="0.14847">
        <ele>103.131166</ele>
        <time>2022-07-11T21:15:28.358Z</time>
      </trkpt>
      <trkpt lat="44.73956" lon="0.14833">
        <ele>103.146481</ele>
        <time>2022-07-11T21:15:30.145Z</time>
      </trkpt>
      <trkpt lat="44.73781" lon="0.14193">
        <ele>104.19898</ele>
        <time>2022-07-11T21:17:02.980Z</time>
      </trkpt>
      <trkpt lat="44.73739" lon="0.14053">
        <ele>104.256159</ele>
        <time>2022-07-11T21:17:23.793Z</time>
      </trkpt>
      <trkpt lat="44.73709" lon="0.13998">
        <ele>104.282234</ele>
        <time>2022-07-11T21:17:32.392Z</time>
      </trkpt>
      <trkpt lat="44.73674" lon="0.1395">
        <ele>104.103944</ele>
        <time>2022-07-11T21:17:40.538Z</time>
      </trkpt>
      <trkpt lat="44.73645" lon="0.13926">
        <ele>103.893949</ele>
        <time>2022-07-11T21:17:45.802Z</time>
      </trkpt>
      <trkpt lat="44.73541" lon="0.13871">
        <ele>103.187408</ele>
        <time>2022-07-11T21:18:04.091Z</time>
      </trkpt>
      <trkpt lat="44.73512" lon="0.13851">
        <ele>103.058452</ele>
        <time>2022-07-11T21:18:09.535Z</time>
      </trkpt>
      <trkpt lat="44.73505" lon="0.13843">
        <ele>103.027809</ele>
        <time>2022-07-11T21:18:11.037Z</time>
      </trkpt>
      <trkpt lat="44.7348" lon="0.13801">
        <ele>102.892532</ele>
        <time>2022-07-11T21:18:18.030Z</time>
      </trkpt>
      <trkpt lat="44.73455" lon="0.13672">
        <ele>102.563186</ele>
        <time>2022-07-11T21:18:34.405Z</time>
      </trkpt>
      <trkpt lat="44.73445" lon="0.13586">
        <ele>102.002738</ele>
        <time>2022-07-11T21:18:44.592Z</time>
      </trkpt>
      <trkpt lat="44.73428" lon="0.13437">
        <ele>100.923249</ele>
        <time>2022-07-11T21:19:01.049Z</time>
      </trkpt>
      <trkpt lat="44.73413" lon="0.13281">
        <ele>101.253596</ele>
        <time>2022-07-11T21:19:19.193Z</time>
      </trkpt>
      <trkpt lat="44.73416" lon="0.13193">
        <ele>101.625467</ele>
        <time>2022-07-11T21:19:34.083Z</time>
      </trkpt>
      <trkpt lat="44.73427" lon="0.1306">
        <ele>103.78295</ele>
        <time>2022-07-11T21:20:02.280Z</time>
      </trkpt>
      <trkpt lat="44.73466" lon="0.12909">
        <ele>107.06851</ele>
        <time>2022-07-11T21:20:37.027Z</time>
      </trkpt>
      <trkpt lat="44.73478" lon="0.12851">
        <ele>107.810543</ele>
        <time>2022-07-11T21:20:48.713Z</time>
      </trkpt>
      <trkpt lat="44.73495" lon="0.12811">
        <ele>108.397878</ele>
        <time>2022-07-11T21:20:57.415Z</time>
      </trkpt>
      <trkpt lat="44.7362" lon="0.12587">
        <ele>111.406162</ele>
        <time>2022-07-11T21:21:42.772Z</time>
      </trkpt>
      <trkpt lat="44.7365" lon="0.12522">
        <ele>112.093269</ele>
        <time>2022-07-11T21:21:55.298Z</time>
      </trkpt>
      <trkpt lat="44.73711" lon="0.12315">
        <ele>114.178005</ele>
        <time>2022-07-11T21:22:33.067Z</time>
      </trkpt>
      <trkpt lat="44.73737" lon="0.12194">
        <ele>114.924278</ele>
        <time>2022-07-11T21:22:52.823Z</time>
      </trkpt>
      <trkpt lat="44.73778" lon="0.11838">
        <ele>115.378822</ele>
        <time>2022-07-11T21:23:39.443Z</time>
      </trkpt>
      <trkpt lat="44.73791" lon="0.11685">
        <ele>115.087119</ele>
        <time>2022-07-11T21:23:58.337Z</time>
      </trkpt>
      <trkpt lat="44.73835" lon="0.11426">
        <ele>113.475335</ele>
        <time>2022-07-11T21:24:29.402Z</time>
      </trkpt>
      <trkpt lat="44.73872" lon="0.11204">
        <ele>110.984397</ele>
        <time>2022-07-11T21:24:53.230Z</time>
      </trkpt>
      <trkpt lat="44.73871" lon="0.11192">
        <ele>110.833277</ele>
        <time>2022-07-11T21:24:54.524Z</time>
      </trkpt>
      <trkpt lat="44.73866" lon="0.1116">
        <ele>110.453661</ele>
        <time>2022-07-11T21:24:57.842Z</time>
      </trkpt>
      <trkpt lat="44.73729" lon="0.10773">
        <ele>105.760972</ele>
        <time>2022-07-11T21:25:44.907Z</time>
      </trkpt>
      <trkpt lat="44.73698" lon="0.10672">
        <ele>104.557178</ele>
        <time>2022-07-11T21:25:56.783Z</time>
      </trkpt>
      <trkpt lat="44.73692" lon="0.10624">
        <ele>104.020343</ele>
        <time>2022-07-11T21:26:02.024Z</time>
      </trkpt>
      <trkpt lat="44.73674" lon="0.1032">
        <ele>100.982358</ele>
        <time>2022-07-11T21:26:34.968Z</time>
      </trkpt>
      <trkpt lat="44.73684" lon="0.10079">
        <ele>100.237131</ele>
        <time>2022-07-11T21:27:03.918Z</time>
      </trkpt>
      <trkpt lat="44.73692" lon="0.09925">
        <ele>100.346021</ele>
        <time>2022-07-11T21:27:25.068Z</time>
      </trkpt>
      <trkpt lat="44.73683" lon="0.09783">
        <ele>100.314393</ele>
        <time>2022-07-11T21:27:44.456Z</time>
      </trkpt>
      <trkpt lat="44.73714" lon="0.09653">
        <ele>99.102823</ele>
        <time>2022-07-11T21:27:59.846Z</time>
      </trkpt>
      <trkpt lat="44.73717" lon="0.09427">
        <ele>97.130268</ele>
        <time>2022-07-11T21:28:23.313Z</time>
      </trkpt>
      <trkpt lat="44.73728" lon="0.09338">
        <ele>96.356199</ele>
        <time>2022-07-11T21:28:33.699Z</time>
      </trkpt>
      <trkpt lat="44.7374" lon="0.09298">
        <ele>96.143572</ele>
        <time>2022-07-11T21:28:39.219Z</time>
      </trkpt>
      <trkpt lat="44.73755" lon="0.09272">
        <ele>96.31451</ele>
        <time>2022-07-11T21:28:43.936Z</time>
      </trkpt>
      <trkpt lat="44.73811" lon="0.09215">
        <ele>96.813172</ele>
        <time>2022-07-11T21:28:59.173Z</time>
      </trkpt>
      <trkpt lat="44.73837" lon="0.09196">
        <ele>97.019032</ele>
        <time>2022-07-11T21:29:05.706Z</time>
      </trkpt>
      <trkpt lat="44.73862" lon="0.09159">
        <ele>97.278275</ele>
        <time>2022-07-11T21:29:13.717Z</time>
      </trkpt>
      <trkpt lat="44.7387" lon="0.09129">
        <ele>97.384147</ele>
        <time>2022-07-11T21:29:18.603Z</time>
      </trkpt>
      <trkpt lat="44.73881" lon="0.09028">
        <ele>97.460808</ele>
        <time>2022-07-11T21:29:32.224Z</time>
      </trkpt>
      <trkpt lat="44.7388" lon="0.08982">
        <ele>97.495884</ele>
        <time>2022-07-11T21:29:37.859Z</time>
      </trkpt>
      <trkpt lat="44.73867" lon="0.08926">
        <ele>97.540155</ele>
        <time>2022-07-11T21:29:44.832Z</time>
      </trkpt>
      <trkpt lat="44.73847" lon="0.08883">
        <ele>97.629919</ele>
        <time>2022-07-11T21:29:50.929Z</time>
      </trkpt>
      <trkpt lat="44.74033" lon="0.08379">
        <ele>100.002992</ele>
        <time>2022-07-11T21:31:14.026Z</time>
      </trkpt>
      <trkpt lat="44.74174" lon="0.07996">
        <ele>101.633573</ele>
        <time>2022-07-11T21:32:14.060Z</time>
      </trkpt>
      <trkpt lat="44.74237" lon="0.07825">
        <ele>102.897903</ele>
        <time>2022-07-11T21:32:43.841Z</time>
      </trkpt>
      <trkpt lat="44.74246" lon="0.07803">
        <ele>103.066016</ele>
        <time>2022-07-11T21:32:48.062Z</time>
      </trkpt>
      <trkpt lat="44.7427" lon="0.07738">
        <ele>103.116542</ele>
        <time>2022-07-11T21:32:59.253Z</time>
      </trkpt>
      <trkpt lat="44.7428" lon="0.07735">
        <ele>103.071953</ele>
        <time>2022-07-11T21:33:01.192Z</time>
      </trkpt>
      <trkpt lat="44.74289" lon="0.07684">
        <ele>102.895295</ele>
        <time>2022-07-11T21:33:08.772Z</time>
      </trkpt>
      <trkpt lat="44.74292" lon="0.07676">
        <ele>102.867753</ele>
        <time>2022-07-11T21:33:10.006Z</time>
      </trkpt>
      <trkpt lat="44.7431" lon="0.07625">
        <ele>102.678328</ele>
        <time>2022-07-11T21:33:16.926Z</time>
      </trkpt>
      <trkpt lat="44.74316" lon="0.07611">
        <ele>102.626025</ele>
        <time>2022-07-11T21:33:18.667Z</time>
      </trkpt>
      <trkpt lat="44.74331" lon="0.07566">
        <ele>102.460858</ele>
        <time>2022-07-11T21:33:24.018Z</time>
      </trkpt>
      <trkpt lat="44.74361" lon="0.07582">
        <ele>101.248891</ele>
        <time>2022-07-11T21:33:28.585Z</time>
      </trkpt>
      <trkpt lat="44.74369" lon="0.07549">
        <ele>100.041803</ele>
        <time>2022-07-11T21:33:31.877Z</time>
      </trkpt>
      <trkpt lat="44.7438" lon="0.07537">
        <ele>99.356505</ele>
        <time>2022-07-11T21:33:33.676Z</time>
      </trkpt>
      <trkpt lat="44.74389" lon="0.07466">
        <ele>96.874917</ele>
        <time>2022-07-11T21:33:40.290Z</time>
      </trkpt>
      <trkpt lat="44.74409" lon="0.07394">
        <ele>94.232156</ele>
        <time>2022-07-11T21:33:46.848Z</time>
      </trkpt>
      <trkpt lat="44.7443" lon="0.07354">
        <ele>92.460851</ele>
        <time>2022-07-11T21:33:51.090Z</time>
      </trkpt>
      <trkpt lat="44.74459" lon="0.07323">
        <ele>90.627806</ele>
        <time>2022-07-11T21:33:55.444Z</time>
      </trkpt>
      <trkpt lat="44.7449" lon="0.07309">
        <ele>88.985111</ele>
        <time>2022-07-11T21:33:59.395Z</time>
      </trkpt>
      <trkpt lat="44.74521" lon="0.07306">
        <ele>87.395154</ele>
        <time>2022-07-11T21:34:03.278Z</time>
      </trkpt>
      <trkpt lat="44.74526" lon="0.07305">
        <ele>87.121587</ele>
        <time>2022-07-11T21:34:03.967Z</time>
      </trkpt>
      <trkpt lat="44.74583" lon="0.07062">
        <ele>83.83131</ele>
        <time>2022-07-11T21:34:31.543Z</time>
      </trkpt>
      <trkpt lat="44.74597" lon="0.07034">
        <ele>83.690136</ele>
        <time>2022-07-11T21:34:37.480Z</time>
      </trkpt>
      <trkpt lat="44.74607" lon="0.07022">
        <ele>83.610499</ele>
        <time>2022-07-11T21:34:41.439Z</time>
      </trkpt>
      <trkpt lat="44.74651" lon="0.06997">
        <ele>84.110977</ele>
        <time>2022-07-11T21:34:53.720Z</time>
      </trkpt>
      <trkpt lat="44.74701" lon="0.06965">
        <ele>84.940964</ele>
        <time>2022-07-11T21:35:07.929Z</time>
      </trkpt>
      <trkpt lat="44.74733" lon="0.06923">
        <ele>85.609909</ele>
        <time>2022-07-11T21:35:19.362Z</time>
      </trkpt>
      <trkpt lat="44.74894" lon="0.067">
        <ele>87.368892</ele>
        <time>2022-07-11T21:36:03.310Z</time>
      </trkpt>
      <trkpt lat="44.749" lon="0.06685">
        <ele>87.602754</ele>
        <time>2022-07-11T21:36:06.035Z</time>
      </trkpt>
      <trkpt lat="44.74906" lon="0.06659">
        <ele>87.988665</ele>
        <time>2022-07-11T21:36:10.687Z</time>
      </trkpt>
      <trkpt lat="44.74903" lon="0.06627">
        <ele>88.43355</ele>
        <time>2022-07-11T21:36:16.272Z</time>
      </trkpt>
      <trkpt lat="44.74885" lon="0.06587">
        <ele>89.08487</ele>
        <time>2022-07-11T21:36:25.064Z</time>
      </trkpt>
      <trkpt lat="44.74877" lon="0.06548">
        <ele>89.641878</ele>
        <time>2022-07-11T21:36:32.824Z</time>
      </trkpt>
      <trkpt lat="44.74883" lon="0.06511">
        <ele>90.168522</ele>
        <time>2022-07-11T21:36:40.276Z</time>
      </trkpt>
      <trkpt lat="44.74903" lon="0.06479">
        <ele>90.758023</ele>
        <time>2022-07-11T21:36:49.008Z</time>
      </trkpt>
      <trkpt lat="44.7496" lon="0.06423">
        <ele>91.917988</ele>
        <time>2022-07-11T21:37:08.034Z</time>
      </trkpt>
      <trkpt lat="44.75054" lon="0.06332">
        <ele>93.812048</ele>
        <time>2022-07-11T21:37:35.236Z</time>
      </trkpt>
      <trkpt lat="44.75081" lon="0.06294">
        <ele>93.838921</ele>
        <time>2022-07-11T21:37:41.936Z</time>
      </trkpt>
      <trkpt lat="44.75179" lon="0.0603">
        <ele>94.365362</ele>
        <time>2022-07-11T21:38:18.847Z</time>
      </trkpt>
      <trkpt lat="44.75221" lon="0.05983">
        <ele>94.716151</ele>
        <time>2022-07-11T21:38:31.403Z</time>
      </trkpt>
      <trkpt lat="44.75324" lon="0.05932">
        <ele>94.670297</ele>
        <time>2022-07-11T21:38:55.493Z</time>
      </trkpt>
      <trkpt lat="44.75327" lon="0.05931">
        <ele>94.644912</ele>
        <time>2022-07-11T21:38:56.161Z</time>
      </trkpt>
      <trkpt lat="44.75555" lon="0.05827">
        <ele>90.717898</ele>
        <time>2022-07-11T21:39:32.086Z</time>
      </trkpt>
      <trkpt lat="44.75573" lon="0.05812">
        <ele>90.186665</ele>
        <time>2022-07-11T21:39:34.899Z</time>
      </trkpt>
      <trkpt lat="44.75588" lon="0.05789">
        <ele>89.613318</ele>
        <time>2022-07-11T21:39:37.889Z</time>
      </trkpt>
      <trkpt lat="44.75604" lon="0.05749">
        <ele>88.535663</ele>
        <time>2022-07-11T21:39:42.141Z</time>
      </trkpt>
      <trkpt lat="44.75642" lon="0.05647">
        <ele>84.633285</ele>
        <time>2022-07-11T21:39:52.599Z</time>
      </trkpt>
      <trkpt lat="44.75672" lon="0.05566">
        <ele>81.52323</ele>
        <time>2022-07-11T21:40:00.784Z</time>
      </trkpt>
      <trkpt lat="44.75701" lon="0.05488">
        <ele>78.723769</ele>
        <time>2022-07-11T21:40:08.764Z</time>
      </trkpt>
      <trkpt lat="44.75746" lon="0.05366">
        <ele>74.592963</ele>
        <time>2022-07-11T21:40:21.373Z</time>
      </trkpt>
      <trkpt lat="44.75756" lon="0.05317">
        <ele>73.047144</ele>
        <time>2022-07-11T21:40:26.291Z</time>
      </trkpt>
      <trkpt lat="44.75761" lon="0.05206">
        <ele>69.959601</ele>
        <time>2022-07-11T21:40:37.099Z</time>
      </trkpt>
      <trkpt lat="44.7575" lon="0.05146">
        <ele>68.221727</ele>
        <time>2022-07-11T21:40:43.042Z</time>
      </trkpt>
      <trkpt lat="44.75727" lon="0.05109">
        <ele>66.876612</ele>
        <time>2022-07-11T21:40:47.563Z</time>
      </trkpt>
      <trkpt lat="44.7569" lon="0.0508">
        <ele>64.844531</ele>
        <time>2022-07-11T21:40:53.089Z</time>
      </trkpt>
      <trkpt lat="44.75666" lon="0.0507">
        <ele>63.322778</ele>
        <time>2022-07-11T21:40:56.178Z</time>
      </trkpt>
      <trkpt lat="44.7561" lon="0.05056">
        <ele>59.767081</ele>
        <time>2022-07-11T21:41:03.113Z</time>
      </trkpt>
      <trkpt lat="44.7552" lon="0.05061">
        <ele>54.238377</ele>
        <time>2022-07-11T21:41:13.912Z</time>
      </trkpt>
      <trkpt lat="44.75505" lon="0.05056">
        <ele>53.594276</ele>
        <time>2022-07-11T21:41:15.872Z</time>
      </trkpt>
      <trkpt lat="44.75495" lon="0.05044">
        <ele>53.063541</ele>
        <time>2022-07-11T21:41:17.317Z</time>
      </trkpt>
      <trkpt lat="44.75482" lon="0.05">
        <ele>51.619534</ele>
        <time>2022-07-11T21:41:21.620Z</time>
      </trkpt>
      <trkpt lat="44.75451" lon="0.04745">
        <ele>46.829813</ele>
        <time>2022-07-11T21:41:47.447Z</time>
      </trkpt>
      <trkpt lat="44.75467" lon="0.04678">
        <ele>46.719477</ele>
        <time>2022-07-11T21:41:58.103Z</time>
      </trkpt>
      <trkpt lat="44.7546" lon="0.04663">
        <ele>46.691402</ele>
        <time>2022-07-11T21:42:01.178Z</time>
      </trkpt>
      <trkpt lat="44.75461" lon="0.04644">
        <ele>46.661548</ele>
        <time>2022-07-11T21:42:04.616Z</time>
      </trkpt>
      <trkpt lat="44.75481" lon="0.04472">
        <ele>48.608735</ele>
        <time>2022-07-11T21:42:38.107Z</time>
      </trkpt>
      <trkpt lat="44.75488" lon="0.04426">
        <ele>49.338397</ele>
        <time>2022-07-11T21:42:47.877Z</time>
      </trkpt>
      <trkpt lat="44.75512" lon="0.04351">
        <ele>50.606869</ele>
        <time>2022-07-11T21:43:03.591Z</time>
      </trkpt>
      <trkpt lat="44.75517" lon="0.04299">
        <ele>51.519175</ele>
        <time>2022-07-11T21:43:13.543Z</time>
      </trkpt>
      <trkpt lat="44.75573" lon="0.04216">
        <ele>53.518773</ele>
        <time>2022-07-11T21:43:35.285Z</time>
      </trkpt>
      <trkpt lat="44.75582" lon="0.04193">
        <ele>53.977885</ele>
        <time>2022-07-11T21:43:40.197Z</time>
      </trkpt>
      <trkpt lat="44.75588" lon="0.04109">
        <ele>55.752697</ele>
        <time>2022-07-11T21:44:00.457Z</time>
      </trkpt>
      <trkpt lat="44.7564" lon="0.04013">
        <ele>58.995484</ele>
        <time>2022-07-11T21:44:27.813Z</time>
      </trkpt>
      <trkpt lat="44.75647" lon="0.03992">
        <ele>59.620175</ele>
        <time>2022-07-11T21:44:34.316Z</time>
      </trkpt>
      <trkpt lat="44.75547" lon="0.03934">
        <ele>64.442755</ele>
        <time>2022-07-11T21:45:12.455Z</time>
      </trkpt>
      <trkpt lat="44.75516" lon="0.03876">
        <ele>67.100297</ele>
        <time>2022-07-11T21:45:32.854Z</time>
      </trkpt>
      <trkpt lat="44.75484" lon="0.0386">
        <ele>68.835026</ele>
        <time>2022-07-11T21:45:44.872Z</time>
      </trkpt>
      <trkpt lat="44.75458" lon="0.03827">
        <ele>70.627749</ele>
        <time>2022-07-11T21:46:00.119Z</time>
      </trkpt>
      <trkpt lat="44.75456" lon="0.03821">
        <ele>70.888059</ele>
        <time>2022-07-11T21:46:02.158Z</time>
      </trkpt>
      <trkpt lat="44.7543" lon="0.03749">
        <ele>74.856771</ele>
        <time>2022-07-11T21:46:29.564Z</time>
      </trkpt>
      <trkpt lat="44.75427" lon="0.03713">
        <ele>76.593753</ele>
        <time>2022-07-11T21:46:40.859Z</time>
      </trkpt>
      <trkpt lat="44.75436" lon="0.03678">
        <ele>78.426092</ele>
        <time>2022-07-11T21:46:52.946Z</time>
      </trkpt>
      <trkpt lat="44.7546" lon="0.03656">
        <ele>80.400426</ele>
        <time>2022-07-11T21:47:07.467Z</time>
      </trkpt>
      <trkpt lat="44.75487" lon="0.03631">
        <ele>82.591896</ele>
        <time>2022-07-11T21:47:22.497Z</time>
      </trkpt>
      <trkpt lat="44.75551" lon="0.03626">
        <ele>86.704206</ele>
        <time>2022-07-11T21:47:51.780Z</time>
      </trkpt>
      <trkpt lat="44.75571" lon="0.03617">
        <ele>88.071991</ele>
        <time>2022-07-11T21:48:01.717Z</time>
      </trkpt>
      <trkpt lat="44.7559" lon="0.03582">
        <ele>90.014464</ele>
        <time>2022-07-11T21:48:17.225Z</time>
      </trkpt>
      <trkpt lat="44.7564" lon="0.03445">
        <ele>96.063886</ele>
        <time>2022-07-11T21:48:59.682Z</time>
      </trkpt>
      <trkpt lat="44.75661" lon="0.03407">
        <ele>97.422833</ele>
        <time>2022-07-11T21:49:12.804Z</time>
      </trkpt>
      <trkpt lat="44.75705" lon="0.0336">
        <ele>99.591099</ele>
        <time>2022-07-11T21:49:31.294Z</time>
      </trkpt>
      <trkpt lat="44.75787" lon="0.03291">
        <ele>102.563638</ele>
        <time>2022-07-11T21:49:59.737Z</time>
      </trkpt>
      <trkpt lat="44.75818" lon="0.03249">
        <ele>103.430097</ele>
        <time>2022-07-11T21:50:11.245Z</time>
      </trkpt>
      <trkpt lat="44.75847" lon="0.03228">
        <ele>104.073731</ele>
        <time>2022-07-11T21:50:19.440Z</time>
      </trkpt>
      <trkpt lat="44.75868" lon="0.03202">
        <ele>104.641149</ele>
        <time>2022-07-11T21:50:26.728Z</time>
      </trkpt>
      <trkpt lat="44.75894" lon="0.03125">
        <ele>105.692862</ele>
        <time>2022-07-11T21:50:41.403Z</time>
      </trkpt>
      <trkpt lat="44.75901" lon="0.031">
        <ele>105.954962</ele>
        <time>2022-07-11T21:50:45.589Z</time>
      </trkpt>
      <trkpt lat="44.75979" lon="0.02972">
        <ele>107.613319</ele>
        <time>2022-07-11T21:51:14.854Z</time>
      </trkpt>
      <trkpt lat="44.76073" lon="0.02769">
        <ele>109.546684</ele>
        <time>2022-07-11T21:51:54.592Z</time>
      </trkpt>
      <trkpt lat="44.76089" lon="0.02734">
        <ele>109.779705</ele>
        <time>2022-07-11T21:52:01.445Z</time>
      </trkpt>
      <trkpt lat="44.761" lon="0.02724">
        <ele>109.74157</ele>
        <time>2022-07-11T21:52:04.359Z</time>
      </trkpt>
      <trkpt lat="44.76098" lon="0.02713">
        <ele>109.718055</ele>
        <time>2022-07-11T21:52:06.020Z</time>
      </trkpt>
      <trkpt lat="44.76077" lon="0.02549">
        <ele>109.366069</ele>
        <time>2022-07-11T21:52:28.026Z</time>
      </trkpt>
      <trkpt lat="44.76099" lon="0.01984">
        <ele>101.249988</ele>
        <time>2022-07-11T21:53:29.128Z</time>
      </trkpt>
      <trkpt lat="44.76106" lon="0.01793">
        <ele>97.772011</ele>
        <time>2022-07-11T21:53:48.414Z</time>
      </trkpt>
      <trkpt lat="44.76114" lon="0.01686">
        <ele>97.266625</ele>
        <time>2022-07-11T21:54:00.645Z</time>
      </trkpt>
      <trkpt lat="44.76253" lon="0.01179">
        <ele>103.47928</ele>
        <time>2022-07-11T21:55:45.831Z</time>
      </trkpt>
      <trkpt lat="44.76273" lon="0.01015">
        <ele>104.76541</ele>
        <time>2022-07-11T21:56:10.117Z</time>
      </trkpt>
      <trkpt lat="44.76277" lon="0.00983">
        <ele>104.831875</ele>
        <time>2022-07-11T21:56:14.752Z</time>
      </trkpt>
      <trkpt lat="44.76281" lon="0.00951">
        <ele>104.897156</ele>
        <time>2022-07-11T21:56:18.955Z</time>
      </trkpt>
      <trkpt lat="44.76223" lon="0.00964">
        <ele>105.063887</ele>
        <time>2022-07-11T21:56:29.637Z</time>
      </trkpt>
      <trkpt lat="44.76149" lon="0.00966">
        <ele>105.296409</ele>
        <time>2022-07-11T21:56:43.830Z</time>
      </trkpt>
      <trkpt lat="44.76153" lon="0.00937">
        <ele>105.488202</ele>
        <time>2022-07-11T21:56:48.174Z</time>
      </trkpt>
      <trkpt lat="44.76179" lon="0.00842">
        <ele>106.145489</ele>
        <time>2022-07-11T21:57:03.553Z</time>
      </trkpt>
      <trkpt lat="44.76189" lon="0.00793">
        <ele>106.478499</ele>
        <time>2022-07-11T21:57:11.189Z</time>
      </trkpt>
      <trkpt lat="44.76192" lon="0.00756">
        <ele>106.720362</ele>
        <time>2022-07-11T21:57:16.853Z</time>
      </trkpt>
      <trkpt lat="44.76191" lon="0.0057">
        <ele>108.775566</ele>
        <time>2022-07-11T21:57:48.279Z</time>
      </trkpt>
      <trkpt lat="44.76177" lon="0.00541">
        <ele>109.194711</ele>
        <time>2022-07-11T21:57:54.947Z</time>
      </trkpt>
      <trkpt lat="44.76088" lon="0.00478">
        <ele>111.0285</ele>
        <time>2022-07-11T21:58:21.108Z</time>
      </trkpt>
      <trkpt lat="44.76048" lon="0.00422">
        <ele>112.125096</ele>
        <time>2022-07-11T21:58:35.284Z</time>
      </trkpt>
      <trkpt lat="44.76038" lon="0.00391">
        <ele>112.609741</ele>
        <time>2022-07-11T21:58:41.431Z</time>
      </trkpt>
      <trkpt lat="44.76036" lon="0.0037">
        <ele>112.908106</ele>
        <time>2022-07-11T21:58:45.265Z</time>
      </trkpt>
      <trkpt lat="44.76039" lon="0.00348">
        <ele>113.217639</ele>
        <time>2022-07-11T21:58:49.229Z</time>
      </trkpt>
      <trkpt lat="44.76055" lon="0.003">
        <ele>113.688974</ele>
        <time>2022-07-11T21:58:58.903Z</time>
      </trkpt>
      <trkpt lat="44.76082" lon="0.00226">
        <ele>114.242206</ele>
        <time>2022-07-11T21:59:13.335Z</time>
      </trkpt>
      <trkpt lat="44.76116" lon="0.00129">
        <ele>114.967647</ele>
        <time>2022-07-11T21:59:28.197Z</time>
      </trkpt>
      <trkpt lat="44.76128" lon="0.0008">
        <ele>114.972533</ele>
        <time>2022-07-11T21:59:34.959Z</time>
      </trkpt>
      <trkpt lat="44.76146" lon="4.0E-5">
        <ele>114.478898</ele>
        <time>2022-07-11T21:59:44.563Z</time>
      </trkpt>
      <trkpt lat="44.76152" lon="-0.00052">
        <ele>114.135516</ele>
        <time>2022-07-11T21:59:50.960Z</time>
      </trkpt>
      <trkpt lat="44.76141" lon="-0.0033">
        <ele>111.303136</ele>
        <time>2022-07-11T22:00:20.635Z</time>
      </trkpt>
      <trkpt lat="44.76144" lon="-0.00364">
        <ele>110.8893</ele>
        <time>2022-07-11T22:00:24.293Z</time>
      </trkpt>
      <trkpt lat="44.76155" lon="-0.00404">
        <ele>110.358973</ele>
        <time>2022-07-11T22:00:28.895Z</time>
      </trkpt>
      <trkpt lat="44.7625" lon="-0.00694">
        <ele>106.508817</ele>
        <time>2022-07-11T22:01:02.586Z</time>
      </trkpt>
      <trkpt lat="44.76255" lon="-0.00743">
        <ele>106.005335</ele>
        <time>2022-07-11T22:01:07.799Z</time>
      </trkpt>
      <trkpt lat="44.76247" lon="-0.00854">
        <ele>104.857275</ele>
        <time>2022-07-11T22:01:19.921Z</time>
      </trkpt>
      <trkpt lat="44.76219" lon="-0.01158">
        <ele>104.610418</ele>
        <time>2022-07-11T22:01:57.871Z</time>
      </trkpt>
      <trkpt lat="44.76209" lon="-0.01195">
        <ele>104.881079</ele>
        <time>2022-07-11T22:02:04.666Z</time>
      </trkpt>
      <trkpt lat="44.76143" lon="-0.0138">
        <ele>105.902592</ele>
        <time>2022-07-11T22:02:38.358Z</time>
      </trkpt>
      <trkpt lat="44.76127" lon="-0.01449">
        <ele>105.55645</ele>
        <time>2022-07-11T22:02:48.166Z</time>
      </trkpt>
      <trkpt lat="44.76124" lon="-0.0151">
        <ele>105.267187</ele>
        <time>2022-07-11T22:02:55.329Z</time>
      </trkpt>
      <trkpt lat="44.76137" lon="-0.01723">
        <ele>102.31804</ele>
        <time>2022-07-11T22:03:16.980Z</time>
      </trkpt>
      <trkpt lat="44.76119" lon="-0.01754">
        <ele>101.518585</ele>
        <time>2022-07-11T22:03:20.888Z</time>
      </trkpt>
      <trkpt lat="44.76011" lon="-0.01836">
        <ele>97.666632</ele>
        <time>2022-07-11T22:03:37.644Z</time>
      </trkpt>
      <trkpt lat="44.75986" lon="-0.01861">
        <ele>96.60758</ele>
        <time>2022-07-11T22:03:41.759Z</time>
      </trkpt>
      <trkpt lat="44.75659" lon="-0.02429">
        <ele>78.900224</ele>
        <time>2022-07-11T22:04:51.576Z</time>
      </trkpt>
      <trkpt lat="44.75634" lon="-0.02456">
        <ele>78.078024</ele>
        <time>2022-07-11T22:04:55.992Z</time>
      </trkpt>
      <trkpt lat="44.75585" lon="-0.02486">
        <ele>76.69315</ele>
        <time>2022-07-11T22:05:03.657Z</time>
      </trkpt>
      <trkpt lat="44.75568" lon="-0.02516">
        <ele>76.076278</ele>
        <time>2022-07-11T22:05:07.818Z</time>
      </trkpt>
      <trkpt lat="44.75562" lon="-0.02553">
        <ele>75.993885</ele>
        <time>2022-07-11T22:05:12.045Z</time>
      </trkpt>
      <trkpt lat="44.75546" lon="-0.02812">
        <ele>75.716778</ele>
        <time>2022-07-11T22:05:45.314Z</time>
      </trkpt>
      <trkpt lat="44.75551" lon="-0.02864">
        <ele>75.900354</ele>
        <time>2022-07-11T22:05:53.416Z</time>
      </trkpt>
      <trkpt lat="44.75597" lon="-0.02963">
        <ele>76.313291</ele>
        <time>2022-07-11T22:06:10.990Z</time>
      </trkpt>
      <trkpt lat="44.7562" lon="-0.02999">
        <ele>76.39524</ele>
        <time>2022-07-11T22:06:17.808Z</time>
      </trkpt>
      <trkpt lat="44.75769" lon="-0.03125">
        <ele>76.046921</ele>
        <time>2022-07-11T22:06:47.127Z</time>
      </trkpt>
      <trkpt lat="44.75779" lon="-0.03158">
        <ele>76.188799</ele>
        <time>2022-07-11T22:06:51.462Z</time>
      </trkpt>
      <trkpt lat="44.75766" lon="-0.03209">
        <ele>76.407054</ele>
        <time>2022-07-11T22:06:58.365Z</time>
      </trkpt>
      <trkpt lat="44.75725" lon="-0.03477">
        <ele>78.107544</ele>
        <time>2022-07-11T22:07:41.200Z</time>
      </trkpt>
      <trkpt lat="44.75733" lon="-0.03616">
        <ele>79.372822</ele>
        <time>2022-07-11T22:08:04.695Z</time>
      </trkpt>
      <trkpt lat="44.75731" lon="-0.03676">
        <ele>79.984314</ele>
        <time>2022-07-11T22:08:14.539Z</time>
      </trkpt>
      <trkpt lat="44.75729" lon="-0.03783">
        <ele>81.091474</ele>
        <time>2022-07-11T22:08:32.198Z</time>
      </trkpt>
      <trkpt lat="44.75734" lon="-0.03802">
        <ele>81.294681</ele>
        <time>2022-07-11T22:08:35.420Z</time>
      </trkpt>
      <trkpt lat="44.75748" lon="-0.0383">
        <ele>81.661389</ele>
        <time>2022-07-11T22:08:41.706Z</time>
      </trkpt>
      <trkpt lat="44.75818" lon="-0.0391">
        <ele>82.944132</ele>
        <time>2022-07-11T22:09:03.367Z</time>
      </trkpt>
      <trkpt lat="44.75833" lon="-0.03938">
        <ele>83.302234</ele>
        <time>2022-07-11T22:09:09.297Z</time>
      </trkpt>
      <trkpt lat="44.75841" lon="-0.03972">
        <ele>83.667474</ele>
        <time>2022-07-11T22:09:15.623Z</time>
      </trkpt>
      <trkpt lat="44.75868" lon="-0.04152">
        <ele>85.105015</ele>
        <time>2022-07-11T22:09:44.439Z</time>
      </trkpt>
      <trkpt lat="44.75921" lon="-0.04143">
        <ele>85.558009</ele>
        <time>2022-07-11T22:09:55.210Z</time>
      </trkpt>
      <trkpt lat="44.75947" lon="-0.04307">
        <ele>86.671989</ele>
        <time>2022-07-11T22:10:21.043Z</time>
      </trkpt>
      <trkpt lat="44.75949" lon="-0.04344">
        <ele>86.936084</ele>
        <time>2022-07-11T22:10:26.858Z</time>
      </trkpt>
      <trkpt lat="44.75869" lon="-0.04784">
        <ele>90.428383</ele>
        <time>2022-07-11T22:11:42.768Z</time>
      </trkpt>
      <trkpt lat="44.75853" lon="-0.04928">
        <ele>91.089518</ele>
        <time>2022-07-11T22:12:04.666Z</time>
      </trkpt>
      <trkpt lat="44.75837" lon="-0.0498">
        <ele>91.058979</ele>
        <time>2022-07-11T22:12:12.074Z</time>
      </trkpt>
      <trkpt lat="44.75756" lon="-0.05093">
        <ele>90.03978</ele>
        <time>2022-07-11T22:12:31.456Z</time>
      </trkpt>
      <trkpt lat="44.75585" lon="-0.05267">
        <ele>86.460371</ele>
        <time>2022-07-11T22:13:04.075Z</time>
      </trkpt>
      <trkpt lat="44.75564" lon="-0.05298">
        <ele>85.84332</ele>
        <time>2022-07-11T22:13:08.757Z</time>
      </trkpt>
      <trkpt lat="44.75552" lon="-0.05334">
        <ele>85.260633</ele>
        <time>2022-07-11T22:13:13.028Z</time>
      </trkpt>
      <trkpt lat="44.75549" lon="-0.05383">
        <ele>84.527647</ele>
        <time>2022-07-11T22:13:18.405Z</time>
      </trkpt>
      <trkpt lat="44.75567" lon="-0.05671">
        <ele>80.08935</ele>
        <time>2022-07-11T22:13:49.859Z</time>
      </trkpt>
      <trkpt lat="44.7559" lon="-0.05816">
        <ele>77.445217</ele>
        <time>2022-07-11T22:14:05.613Z</time>
      </trkpt>
      <trkpt lat="44.75614" lon="-0.05946">
        <ele>74.441382</ele>
        <time>2022-07-11T22:14:19.388Z</time>
      </trkpt>
      <trkpt lat="44.7562" lon="-0.06">
        <ele>73.205456</ele>
        <time>2022-07-11T22:14:24.946Z</time>
      </trkpt>
      <trkpt lat="44.75607" lon="-0.06039">
        <ele>72.083686</ele>
        <time>2022-07-11T22:14:29.182Z</time>
      </trkpt>
      <trkpt lat="44.75553" lon="-0.06122">
        <ele>68.651759</ele>
        <time>2022-07-11T22:14:39.969Z</time>
      </trkpt>
      <trkpt lat="44.75476" lon="-0.06188">
        <ele>64.721817</ele>
        <time>2022-07-11T22:14:52.462Z</time>
      </trkpt>
      <trkpt lat="44.75476" lon="-0.06199">
        <ele>64.282585</ele>
        <time>2022-07-11T22:14:53.452Z</time>
      </trkpt>
      <trkpt lat="44.75484" lon="-0.06205">
        <ele>63.751542</ele>
        <time>2022-07-11T22:14:54.780Z</time>
      </trkpt>
      <trkpt lat="44.75555" lon="-0.062">
        <ele>59.75118</ele>
        <time>2022-07-11T22:15:04.073Z</time>
      </trkpt>
      <trkpt lat="44.75578" lon="-0.06211">
        <ele>58.435326</ele>
        <time>2022-07-11T22:15:07.057Z</time>
      </trkpt>
      <trkpt lat="44.75623" lon="-0.06301">
        <ele>54.012135</ele>
        <time>2022-07-11T22:15:17.140Z</time>
      </trkpt>
      <trkpt lat="44.75645" lon="-0.06403">
        <ele>49.617482</ele>
        <time>2022-07-11T22:15:27.054Z</time>
      </trkpt>
      <trkpt lat="44.75668" lon="-0.06452">
        <ele>47.241489</ele>
        <time>2022-07-11T22:15:32.408Z</time>
      </trkpt>
      <trkpt lat="44.75702" lon="-0.0649">
        <ele>44.735424</ele>
        <time>2022-07-11T22:15:38.056Z</time>
      </trkpt>
      <trkpt lat="44.75763" lon="-0.06533">
        <ele>41.402875</ele>
        <time>2022-07-11T22:15:47.043Z</time>
      </trkpt>
      <trkpt lat="44.75778" lon="-0.0655">
        <ele>40.491101</ele>
        <time>2022-07-11T22:15:49.615Z</time>
      </trkpt>
      <trkpt lat="44.75793" lon="-0.06576">
        <ele>39.309956</ele>
        <time>2022-07-11T22:15:52.923Z</time>
      </trkpt>
      <trkpt lat="44.75848" lon="-0.06717">
        <ele>34.482952</ele>
        <time>2022-07-11T22:16:08.365Z</time>
      </trkpt>
      <trkpt lat="44.75797" lon="-0.06739">
        <ele>32.768938</ele>
        <time>2022-07-11T22:16:15.250Z</time>
      </trkpt>
      <trkpt lat="44.75743" lon="-0.06789">
        <ele>30.669451</ele>
        <time>2022-07-11T22:16:24.203Z</time>
      </trkpt>
      <trkpt lat="44.75693" lon="-0.06842">
        <ele>29.901585</ele>
        <time>2022-07-11T22:16:34.093Z</time>
      </trkpt>
      <trkpt lat="44.75633" lon="-0.06906">
        <ele>29.822209</ele>
        <time>2022-07-11T22:16:47.089Z</time>
      </trkpt>
      <trkpt lat="44.75601" lon="-0.06953">
        <ele>29.773125</ele>
        <time>2022-07-11T22:16:56.220Z</time>
      </trkpt>
      <trkpt lat="44.75448" lon="-0.07271">
        <ele>33.6964</ele>
        <time>2022-07-11T22:18:03.057Z</time>
      </trkpt>
      <trkpt lat="44.75418" lon="-0.07322">
        <ele>34.407916</ele>
        <time>2022-07-11T22:18:15.577Z</time>
      </trkpt>
      <trkpt lat="44.75381" lon="-0.07364">
        <ele>35.125861</ele>
        <time>2022-07-11T22:18:26.116Z</time>
      </trkpt>
      <trkpt lat="44.75333" lon="-0.07399">
        <ele>35.180626</ele>
        <time>2022-07-11T22:18:36.899Z</time>
      </trkpt>
      <trkpt lat="44.7531" lon="-0.07503">
        <ele>35.015365</ele>
        <time>2022-07-11T22:18:49.988Z</time>
      </trkpt>
      <trkpt lat="44.75312" lon="-0.07515">
        <ele>34.996807</ele>
        <time>2022-07-11T22:18:51.266Z</time>
      </trkpt>
      <trkpt lat="44.75317" lon="-0.07525">
        <ele>34.977713</ele>
        <time>2022-07-11T22:18:52.700Z</time>
      </trkpt>
      <trkpt lat="44.75359" lon="-0.07546">
        <ele>34.914905</ele>
        <time>2022-07-11T22:19:00.070Z</time>
      </trkpt>
      <trkpt lat="44.75372" lon="-0.07551">
        <ele>35.009075</ele>
        <time>2022-07-11T22:19:02.138Z</time>
      </trkpt>
      <trkpt lat="44.75372" lon="-0.07551">
        <ele>35.012887</ele>
        <time>2022-07-11T22:19:02.218Z</time>
      </trkpt>
      <trkpt lat="44.75376" lon="-0.07553">
        <ele>35.041971</ele>
        <time>2022-07-11T22:19:02.808Z</time>
      </trkpt>
      <trkpt lat="44.75386" lon="-0.07559">
        <ele>35.123854</ele>
        <time>2022-07-11T22:19:04.570Z</time>
      </trkpt>
      <trkpt lat="44.75413" lon="-0.07598">
        <ele>35.40683</ele>
        <time>2022-07-11T22:19:11.105Z</time>
      </trkpt>
      <trkpt lat="44.7542" lon="-0.07621">
        <ele>35.536732</ele>
        <time>2022-07-11T22:19:14.245Z</time>
      </trkpt>
      <trkpt lat="44.75424" lon="-0.07665">
        <ele>35.766936</ele>
        <time>2022-07-11T22:19:20.207Z</time>
      </trkpt>
      <trkpt lat="44.75395" lon="-0.07797">
        <ele>38.688507</ele>
        <time>2022-07-11T22:19:46.907Z</time>
      </trkpt>
      <trkpt lat="44.7538" lon="-0.07836">
        <ele>40.719287</ele>
        <time>2022-07-11T22:19:59.447Z</time>
      </trkpt>
      <trkpt lat="44.75346" lon="-0.07895">
        <ele>44.242332</ele>
        <time>2022-07-11T22:20:25.648Z</time>
      </trkpt>
      <trkpt lat="44.7534" lon="-0.07927">
        <ele>45.766926</ele>
        <time>2022-07-11T22:20:38.290Z</time>
      </trkpt>
      <trkpt lat="44.7541" lon="-0.08107">
        <ele>57.419166</ele>
        <time>2022-07-11T22:21:59.194Z</time>
      </trkpt>
      <trkpt lat="44.75434" lon="-0.08138">
        <ele>60.144059</ele>
        <time>2022-07-11T22:22:16.826Z</time>
      </trkpt>
      <trkpt lat="44.75496" lon="-0.08189">
        <ele>63.862881</ele>
        <time>2022-07-11T22:22:48.238Z</time>
      </trkpt>
      <trkpt lat="44.7556" lon="-0.08301">
        <ele>66.10652</ele>
        <time>2022-07-11T22:23:12.557Z</time>
      </trkpt>
      <trkpt lat="44.75582" lon="-0.08348">
        <ele>66.974889</ele>
        <time>2022-07-11T22:23:18.960Z</time>
      </trkpt>
      <trkpt lat="44.75607" lon="-0.08459">
        <ele>65.707655</ele>
        <time>2022-07-11T22:23:31.730Z</time>
      </trkpt>
      <trkpt lat="44.75618" lon="-0.08485">
        <ele>65.375128</ele>
        <time>2022-07-11T22:23:34.970Z</time>
      </trkpt>
      <trkpt lat="44.75653" lon="-0.08535">
        <ele>64.604356</ele>
        <time>2022-07-11T22:23:42.241Z</time>
      </trkpt>
      <trkpt lat="44.75674" lon="-0.08574">
        <ele>64.060523</ele>
        <time>2022-07-11T22:23:47.278Z</time>
      </trkpt>
      <trkpt lat="44.75707" lon="-0.08663">
        <ele>62.887421</ele>
        <time>2022-07-11T22:23:57.715Z</time>
      </trkpt>
      <trkpt lat="44.75715" lon="-0.08697">
        <ele>62.478888</ele>
        <time>2022-07-11T22:24:01.400Z</time>
      </trkpt>
      <trkpt lat="44.75733" lon="-0.08797">
        <ele>61.278127</ele>
        <time>2022-07-11T22:24:12.625Z</time>
      </trkpt>
      <trkpt lat="44.75759" lon="-0.08937">
        <ele>61.475946</ele>
        <time>2022-07-11T22:24:30.596Z</time>
      </trkpt>
      <trkpt lat="44.75772" lon="-0.08964">
        <ele>61.525011</ele>
        <time>2022-07-11T22:24:35.583Z</time>
      </trkpt>
      <trkpt lat="44.75795" lon="-0.08989">
        <ele>61.588049</ele>
        <time>2022-07-11T22:24:42.005Z</time>
      </trkpt>
      <trkpt lat="44.75896" lon="-0.0906">
        <ele>61.859598</ele>
        <time>2022-07-11T22:25:06.809Z</time>
      </trkpt>
      <trkpt lat="44.75955" lon="-0.09152">
        <ele>62.07819</ele>
        <time>2022-07-11T22:25:22.311Z</time>
      </trkpt>
      <trkpt lat="44.75916" lon="-0.09191">
        <ele>62.085458</ele>
        <time>2022-07-11T22:25:29.661Z</time>
      </trkpt>
      <trkpt lat="44.7584" lon="-0.09221">
        <ele>62.076432</ele>
        <time>2022-07-11T22:25:43.801Z</time>
      </trkpt>
      <trkpt lat="44.75796" lon="-0.09278">
        <ele>62.145055</ele>
        <time>2022-07-11T22:25:56.572Z</time>
      </trkpt>
      <trkpt lat="44.75784" lon="-0.09288">
        <ele>62.571421</ele>
        <time>2022-07-11T22:25:59.424Z</time>
      </trkpt>
      <trkpt lat="44.75765" lon="-0.0929">
        <ele>63.195</ele>
        <time>2022-07-11T22:26:05.914Z</time>
      </trkpt>
      <trkpt lat="44.75722" lon="-0.09273">
        <ele>64.598939</ele>
        <time>2022-07-11T22:26:18.793Z</time>
      </trkpt>
      <trkpt lat="44.75679" lon="-0.09277">
        <ele>65.95307</ele>
        <time>2022-07-11T22:26:32.328Z</time>
      </trkpt>
      <trkpt lat="44.75605" lon="-0.09262">
        <ele>68.383808</ele>
        <time>2022-07-11T22:27:01.074Z</time>
      </trkpt>
      <trkpt lat="44.75502" lon="-0.0928">
        <ele>72.041424</ele>
        <time>2022-07-11T22:27:36.082Z</time>
      </trkpt>
      <trkpt lat="44.75451" lon="-0.09315">
        <ele>74.035818</ele>
        <time>2022-07-11T22:27:53.011Z</time>
      </trkpt>
      <trkpt lat="44.75395" lon="-0.09361">
        <ele>74.881769</ele>
        <time>2022-07-11T22:28:09.868Z</time>
      </trkpt>
      <trkpt lat="44.7538" lon="-0.09382">
        <ele>75.151131</ele>
        <time>2022-07-11T22:28:15.037Z</time>
      </trkpt>
      <trkpt lat="44.75253" lon="-0.09603">
        <ele>77.385142</ele>
        <time>2022-07-11T22:28:57.342Z</time>
      </trkpt>
      <trkpt lat="44.75188" lon="-0.09705">
        <ele>78.685617</ele>
        <time>2022-07-11T22:29:20.410Z</time>
      </trkpt>
      <trkpt lat="44.75172" lon="-0.09748">
        <ele>79.57493</ele>
        <time>2022-07-11T22:29:29.879Z</time>
      </trkpt>
      <trkpt lat="44.75142" lon="-0.09804">
        <ele>80.831477</ele>
        <time>2022-07-11T22:29:44.211Z</time>
      </trkpt>
      <trkpt lat="44.75012" lon="-0.09974">
        <ele>85.756044</ele>
        <time>2022-07-11T22:30:40.116Z</time>
      </trkpt>
      <trkpt lat="44.74973" lon="-0.09999">
        <ele>87.011815</ele>
        <time>2022-07-11T22:30:52.928Z</time>
      </trkpt>
      <trkpt lat="44.74912" lon="-0.10022">
        <ele>88.406146</ele>
        <time>2022-07-11T22:31:10.617Z</time>
      </trkpt>
      <trkpt lat="44.74899" lon="-0.10036">
        <ele>88.647282</ele>
        <time>2022-07-11T22:31:14.759Z</time>
      </trkpt>
      <trkpt lat="44.74889" lon="-0.10059">
        <ele>88.922865</ele>
        <time>2022-07-11T22:31:19.382Z</time>
      </trkpt>
      <trkpt lat="44.74887" lon="-0.10095">
        <ele>89.304103</ele>
        <time>2022-07-11T22:31:25.506Z</time>
      </trkpt>
      <trkpt lat="44.74934" lon="-0.10322">
        <ele>91.768064</ele>
        <time>2022-07-11T22:32:01.232Z</time>
      </trkpt>
      <trkpt lat="44.74937" lon="-0.10375">
        <ele>92.333296</ele>
        <time>2022-07-11T22:32:10.094Z</time>
      </trkpt>
      <trkpt lat="44.74932" lon="-0.1044">
        <ele>93.009662</ele>
        <time>2022-07-11T22:32:21.468Z</time>
      </trkpt>
      <trkpt lat="44.74905" lon="-0.10784">
        <ele>99.995223</ele>
        <time>2022-07-11T22:33:34.119Z</time>
      </trkpt>
      <trkpt lat="44.74901" lon="-0.10885">
        <ele>102.326822</ele>
        <time>2022-07-11T22:33:57.180Z</time>
      </trkpt>
      <trkpt lat="44.74892" lon="-0.11024">
        <ele>104.684752</ele>
        <time>2022-07-11T22:34:28.373Z</time>
      </trkpt>
      <trkpt lat="44.74858" lon="-0.11225">
        <ele>106.134187</ele>
        <time>2022-07-11T22:34:59.084Z</time>
      </trkpt>
      <trkpt lat="44.74852" lon="-0.11262">
        <ele>105.522114</ele>
        <time>2022-07-11T22:35:03.132Z</time>
      </trkpt>
      <trkpt lat="44.74855" lon="-0.11299">
        <ele>104.923363</ele>
        <time>2022-07-11T22:35:06.975Z</time>
      </trkpt>
      <trkpt lat="44.74841" lon="-0.11333">
        <ele>104.285054</ele>
        <time>2022-07-11T22:35:10.929Z</time>
      </trkpt>
      <trkpt lat="44.74793" lon="-0.11603">
        <ele>99.470061</ele>
        <time>2022-07-11T22:35:37.946Z</time>
      </trkpt>
      <trkpt lat="44.74787" lon="-0.11665">
        <ele>98.336814</ele>
        <time>2022-07-11T22:35:44.371Z</time>
      </trkpt>
      <trkpt lat="44.74814" lon="-0.11954">
        <ele>95.310806</ele>
        <time>2022-07-11T22:36:16.472Z</time>
      </trkpt>
      <trkpt lat="44.74836" lon="-0.12107">
        <ele>94.456271</ele>
        <time>2022-07-11T22:36:34.307Z</time>
      </trkpt>
      <trkpt lat="44.74867" lon="-0.12331">
        <ele>93.515605</ele>
        <time>2022-07-11T22:37:01.360Z</time>
      </trkpt>
      <trkpt lat="44.74911" lon="-0.12845">
        <ele>91.977912</ele>
        <time>2022-07-11T22:38:04.307Z</time>
      </trkpt>
      <trkpt lat="44.74903" lon="-0.12892">
        <ele>91.769781</ele>
        <time>2022-07-11T22:38:09.761Z</time>
      </trkpt>
      <trkpt lat="44.74807" lon="-0.13124">
        <ele>89.775557</ele>
        <time>2022-07-11T22:38:39.845Z</time>
      </trkpt>
      <trkpt lat="44.74807" lon="-0.13156">
        <ele>89.508998</ele>
        <time>2022-07-11T22:38:43.391Z</time>
      </trkpt>
      <trkpt lat="44.74834" lon="-0.13318">
        <ele>87.32155</ele>
        <time>2022-07-11T22:39:01.402Z</time>
      </trkpt>
      <trkpt lat="44.74853" lon="-0.13369">
        <ele>86.535866</ele>
        <time>2022-07-11T22:39:07.389Z</time>
      </trkpt>
      <trkpt lat="44.74932" lon="-0.13522">
        <ele>82.791874</ele>
        <time>2022-07-11T22:39:25.944Z</time>
      </trkpt>
      <trkpt lat="44.74943" lon="-0.13553">
        <ele>82.052166</ele>
        <time>2022-07-11T22:39:29.184Z</time>
      </trkpt>
      <trkpt lat="44.74964" lon="-0.13989">
        <ele>73.667137</ele>
        <time>2022-07-11T22:40:12.083Z</time>
      </trkpt>
      <trkpt lat="44.74965" lon="-0.14351">
        <ele>70.694789</ele>
        <time>2022-07-11T22:40:53.678Z</time>
      </trkpt>
      <trkpt lat="44.7498" lon="-0.14621">
        <ele>69.866902</ele>
        <time>2022-07-11T22:41:25.728Z</time>
      </trkpt>
      <trkpt lat="44.7497" lon="-0.14955">
        <ele>71.986619</ele>
        <time>2022-07-11T22:42:12.630Z</time>
      </trkpt>
      <trkpt lat="44.74871" lon="-0.14942">
        <ele>74.856463</ele>
        <time>2022-07-11T22:42:44.979Z</time>
      </trkpt>
      <trkpt lat="44.74813" lon="-0.14935">
        <ele>76.264412</ele>
        <time>2022-07-11T22:43:05.985Z</time>
      </trkpt>
      <trkpt lat="44.74787" lon="-0.14943">
        <ele>76.671028</ele>
        <time>2022-07-11T22:43:14.770Z</time>
      </trkpt>
      <trkpt lat="44.74683" lon="-0.15057">
        <ele>78.708828</ele>
        <time>2022-07-11T22:43:44.711Z</time>
      </trkpt>
      <trkpt lat="44.74531" lon="-0.15166">
        <ele>74.186683</ele>
        <time>2022-07-11T22:44:08.121Z</time>
      </trkpt>
      <trkpt lat="44.74402" lon="-0.15193">
        <ele>69.797876</ele>
        <time>2022-07-11T22:44:25.448Z</time>
      </trkpt>
      <trkpt lat="44.74387" lon="-0.15363">
        <ele>66.216403</ele>
        <time>2022-07-11T22:44:43.083Z</time>
      </trkpt>
      <trkpt lat="44.74366" lon="-0.15512">
        <ele>63.481203</ele>
        <time>2022-07-11T22:44:59.346Z</time>
      </trkpt>
      <trkpt lat="44.74361" lon="-0.1562">
        <ele>62.050782</ele>
        <time>2022-07-11T22:45:11.105Z</time>
      </trkpt>
      <trkpt lat="44.74337" lon="-0.15876">
        <ele>59.273856</ele>
        <time>2022-07-11T22:45:40.226Z</time>
      </trkpt>
      <trkpt lat="44.74308" lon="-0.16362">
        <ele>56.391587</ele>
        <time>2022-07-11T22:46:39.224Z</time>
      </trkpt>
      <trkpt lat="44.74296" lon="-0.1658">
        <ele>54.765987</ele>
        <time>2022-07-11T22:47:05.967Z</time>
      </trkpt>
      <trkpt lat="44.74291" lon="-0.16666">
        <ele>53.471632</ele>
        <time>2022-07-11T22:47:14.902Z</time>
      </trkpt>
      <trkpt lat="44.74276" lon="-0.16714">
        <ele>52.685965</ele>
        <time>2022-07-11T22:47:20.144Z</time>
      </trkpt>
      <trkpt lat="44.74251" lon="-0.16725">
        <ele>52.131105</ele>
        <time>2022-07-11T22:47:23.792Z</time>
      </trkpt>
      <trkpt lat="44.74215" lon="-0.16725">
        <ele>51.276886</ele>
        <time>2022-07-11T22:47:28.782Z</time>
      </trkpt>
      <trkpt lat="44.74156" lon="-0.16725">
        <ele>49.651156</ele>
        <time>2022-07-11T22:47:36.902Z</time>
      </trkpt>
      <trkpt lat="44.7414" lon="-0.16742">
        <ele>49.093641</ele>
        <time>2022-07-11T22:47:39.691Z</time>
      </trkpt>
      <trkpt lat="44.7412" lon="-0.16881">
        <ele>46.450852</ele>
        <time>2022-07-11T22:47:53.895Z</time>
      </trkpt>
      <trkpt lat="44.74102" lon="-0.1692">
        <ele>45.757594</ele>
        <time>2022-07-11T22:47:58.916Z</time>
      </trkpt>
      <trkpt lat="44.74091" lon="-0.16934">
        <ele>45.457576</ele>
        <time>2022-07-11T22:48:01.137Z</time>
      </trkpt>
      <trkpt lat="44.74067" lon="-0.16945">
        <ele>44.945188</ele>
        <time>2022-07-11T22:48:04.945Z</time>
      </trkpt>
      <trkpt lat="44.73994" lon="-0.1694">
        <ele>43.421169</ele>
        <time>2022-07-11T22:48:16.135Z</time>
      </trkpt>
      <trkpt lat="44.73914" lon="-0.16973">
        <ele>41.2824</ele>
        <time>2022-07-11T22:48:27.334Z</time>
      </trkpt>
      <trkpt lat="44.73898" lon="-0.16988">
        <ele>40.776753</ele>
        <time>2022-07-11T22:48:29.887Z</time>
      </trkpt>
      <trkpt lat="44.73879" lon="-0.17043">
        <ele>39.591315</ele>
        <time>2022-07-11T22:48:36.081Z</time>
      </trkpt>
      <trkpt lat="44.73909" lon="-0.17104">
        <ele>38.18553</ele>
        <time>2022-07-11T22:48:43.602Z</time>
      </trkpt>
      <trkpt lat="44.73915" lon="-0.17129">
        <ele>38.27574</ele>
        <time>2022-07-11T22:48:46.390Z</time>
      </trkpt>
      <trkpt lat="44.73922" lon="-0.17156">
        <ele>38.377062</ele>
        <time>2022-07-11T22:48:49.487Z</time>
      </trkpt>
      <trkpt lat="44.73929" lon="-0.17171">
        <ele>38.439642</ele>
        <time>2022-07-11T22:48:51.478Z</time>
      </trkpt>
      <trkpt lat="44.73973" lon="-0.17167">
        <ele>38.657427</ele>
        <time>2022-07-11T22:48:58.544Z</time>
      </trkpt>
      <trkpt lat="44.73998" lon="-0.1717">
        <ele>38.777553</ele>
        <time>2022-07-11T22:49:02.830Z</time>
      </trkpt>
      <trkpt lat="44.74024" lon="-0.17181">
        <ele>38.914699</ele>
        <time>2022-07-11T22:49:10.335Z</time>
      </trkpt>
      <trkpt lat="44.74069" lon="-0.17215">
        <ele>40.028949</ele>
        <time>2022-07-11T22:49:28.855Z</time>
      </trkpt>
      <trkpt lat="44.74115" lon="-0.1726">
        <ele>42.731463</ele>
        <time>2022-07-11T22:49:49.062Z</time>
      </trkpt>
      <trkpt lat="44.74143" lon="-0.17313">
        <ele>45.016784</ele>
        <time>2022-07-11T22:50:06.894Z</time>
      </trkpt>
      <trkpt lat="44.74235" lon="-0.1751">
        <ele>53.57136</ele>
        <time>2022-07-11T22:51:13.691Z</time>
      </trkpt>
      <trkpt lat="44.74245" lon="-0.17551">
        <ele>55.183603</ele>
        <time>2022-07-11T22:51:25.271Z</time>
      </trkpt>
      <trkpt lat="44.74265" lon="-0.17699">
        <ele>59.515989</ele>
        <time>2022-07-11T22:52:04.798Z</time>
      </trkpt>
      <trkpt lat="44.74267" lon="-0.17715">
        <ele>59.893101</ele>
        <time>2022-07-11T22:52:08.538Z</time>
      </trkpt>
      <trkpt lat="44.74277" lon="-0.1779">
        <ele>61.710406</ele>
        <time>2022-07-11T22:52:25.211Z</time>
      </trkpt>
      <trkpt lat="44.74279" lon="-0.17805">
        <ele>62.0775</ele>
        <time>2022-07-11T22:52:28.236Z</time>
      </trkpt>
      <trkpt lat="44.74301" lon="-0.17891">
        <ele>63.137978</ele>
        <time>2022-07-11T22:52:43.811Z</time>
      </trkpt>
      <trkpt lat="44.74311" lon="-0.17965">
        <ele>62.889217</ele>
        <time>2022-07-11T22:52:53.567Z</time>
      </trkpt>
      <trkpt lat="44.74343" lon="-0.18248">
        <ele>61.45236</ele>
        <time>2022-07-11T22:53:24.212Z</time>
      </trkpt>
      <trkpt lat="44.7436" lon="-0.18679">
        <ele>61.70206</ele>
        <time>2022-07-11T22:54:21.420Z</time>
      </trkpt>
      <trkpt lat="44.74361" lon="-0.18704">
        <ele>61.870168</ele>
        <time>2022-07-11T22:54:25.099Z</time>
      </trkpt>
      <trkpt lat="44.74362" lon="-0.18722">
        <ele>61.990751</ele>
        <time>2022-07-11T22:54:27.796Z</time>
      </trkpt>
      <trkpt lat="44.74363" lon="-0.18766">
        <ele>62.288574</ele>
        <time>2022-07-11T22:54:34.667Z</time>
      </trkpt>
      <trkpt lat="44.74355" lon="-0.1881">
        <ele>62.594805</ele>
        <time>2022-07-11T22:54:42.100Z</time>
      </trkpt>
      <trkpt lat="44.74341" lon="-0.18843">
        <ele>62.847629</ele>
        <time>2022-07-11T22:54:48.424Z</time>
      </trkpt>
      <trkpt lat="44.74309" lon="-0.18898">
        <ele>63.886034</ele>
        <time>2022-07-11T22:55:01.106Z</time>
      </trkpt>
      <trkpt lat="44.74268" lon="-0.19034">
        <ele>66.156603</ele>
        <time>2022-07-11T22:55:29.436Z</time>
      </trkpt>
      <trkpt lat="44.74249" lon="-0.1911">
        <ele>67.308186</ele>
        <time>2022-07-11T22:55:46.096Z</time>
      </trkpt>
      <trkpt lat="44.74237" lon="-0.19233">
        <ele>68.931104</ele>
        <time>2022-07-11T22:56:09.014Z</time>
      </trkpt>
      <trkpt lat="44.7424" lon="-0.1927">
        <ele>69.426763</ele>
        <time>2022-07-11T22:56:15.441Z</time>
      </trkpt>
      <trkpt lat="44.7425" lon="-0.19301">
        <ele>69.862426</ele>
        <time>2022-07-11T22:56:20.758Z</time>
      </trkpt>
      <trkpt lat="44.74296" lon="-0.19395">
        <ele>70.446161</ele>
        <time>2022-07-11T22:56:38.090Z</time>
      </trkpt>
      <trkpt lat="44.74431" lon="-0.19836">
        <ele>71.901532</ele>
        <time>2022-07-11T22:57:41.060Z</time>
      </trkpt>
      <trkpt lat="44.74521" lon="-0.20095">
        <ele>74.060933</ele>
        <time>2022-07-11T22:58:29.366Z</time>
      </trkpt>
      <trkpt lat="44.74546" lon="-0.20166">
        <ele>74.627599</ele>
        <time>2022-07-11T22:58:42.265Z</time>
      </trkpt>
      <trkpt lat="44.74594" lon="-0.20255">
        <ele>74.871868</ele>
        <time>2022-07-11T22:58:57.511Z</time>
      </trkpt>
      <trkpt lat="44.74516" lon="-0.20329">
        <ele>74.07879</ele>
        <time>2022-07-11T22:59:12.701Z</time>
      </trkpt>
      <trkpt lat="44.74469" lon="-0.20373">
        <ele>73.604583</ele>
        <time>2022-07-11T22:59:21.051Z</time>
      </trkpt>
      <trkpt lat="44.7435" lon="-0.2048">
        <ele>72.134813</ele>
        <time>2022-07-11T22:59:42.322Z</time>
      </trkpt>
      <trkpt lat="44.74189" lon="-0.20626">
        <ele>72.971014</ele>
        <time>2022-07-11T23:00:21.541Z</time>
      </trkpt>
      <trkpt lat="44.74157" lon="-0.2067">
        <ele>73.426666</ele>
        <time>2022-07-11T23:00:32.837Z</time>
      </trkpt>
      <trkpt lat="44.74132" lon="-0.20722">
        <ele>74.003228</ele>
        <time>2022-07-11T23:00:43.813Z</time>
      </trkpt>
      <trkpt lat="44.74032" lon="-0.20937">
        <ele>75.81398</ele>
        <time>2022-07-11T23:01:24.589Z</time>
      </trkpt>
      <trkpt lat="44.73983" lon="-0.20978">
        <ele>76.063829</ele>
        <time>2022-07-11T23:01:35.163Z</time>
      </trkpt>
      <trkpt lat="44.73941" lon="-0.20997">
        <ele>76.253332</ele>
        <time>2022-07-11T23:01:43.056Z</time>
      </trkpt>
      <trkpt lat="44.73981" lon="-0.21133">
        <ele>75.854151</ele>
        <time>2022-07-11T23:02:02.036Z</time>
      </trkpt>
      <trkpt lat="44.7403" lon="-0.2126">
        <ele>75.21821</ele>
        <time>2022-07-11T23:02:19.422Z</time>
      </trkpt>
      <trkpt lat="44.7408" lon="-0.21417">
        <ele>73.501245</ele>
        <time>2022-07-11T23:02:39.021Z</time>
      </trkpt>
      <trkpt lat="44.74114" lon="-0.21509">
        <ele>72.305655</ele>
        <time>2022-07-11T23:02:50.664Z</time>
      </trkpt>
      <trkpt lat="44.74163" lon="-0.21665">
        <ele>69.989487</ele>
        <time>2022-07-11T23:03:09.312Z</time>
      </trkpt>
      <trkpt lat="44.74043" lon="-0.21725">
        <ele>67.75851</ele>
        <time>2022-07-11T23:03:27.966Z</time>
      </trkpt>
      <trkpt lat="44.74088" lon="-0.21844">
        <ele>66.392547</ele>
        <time>2022-07-11T23:03:42.465Z</time>
      </trkpt>
      <trkpt lat="44.74098" lon="-0.21881">
        <ele>66.442783</ele>
        <time>2022-07-11T23:03:46.986Z</time>
      </trkpt>
      <trkpt lat="44.74127" lon="-0.21977">
        <ele>66.574495</ele>
        <time>2022-07-11T23:04:00.121Z</time>
      </trkpt>
      <trkpt lat="44.74185" lon="-0.22063">
        <ele>67.138218</ele>
        <time>2022-07-11T23:04:19.483Z</time>
      </trkpt>
      <trkpt lat="44.7425" lon="-0.22206">
        <ele>69.735369</ele>
        <time>2022-07-11T23:04:52.242Z</time>
      </trkpt>
      <trkpt lat="44.74334" lon="-0.22301">
        <ele>71.664669</ele>
        <time>2022-07-11T23:05:22.422Z</time>
      </trkpt>
      <trkpt lat="44.74367" lon="-0.22352">
        <ele>72.440857</ele>
        <time>2022-07-11T23:05:34.103Z</time>
      </trkpt>
      <trkpt lat="44.74385" lon="-0.22404">
        <ele>73.091247</ele>
        <time>2022-07-11T23:05:42.994Z</time>
      </trkpt>
      <trkpt lat="44.74418" lon="-0.22567">
        <ele>73.103412</ele>
        <time>2022-07-11T23:06:05.328Z</time>
      </trkpt>
      <trkpt lat="44.74427" lon="-0.22627">
        <ele>72.969679</ele>
        <time>2022-07-11T23:06:12.390Z</time>
      </trkpt>
      <trkpt lat="44.7445" lon="-0.2277">
        <ele>71.996347</ele>
        <time>2022-07-11T23:06:28.633Z</time>
      </trkpt>
      <trkpt lat="44.74563" lon="-0.23095">
        <ele>69.251221</ele>
        <time>2022-07-11T23:07:08.264Z</time>
      </trkpt>
      <trkpt lat="44.74702" lon="-0.2336">
        <ele>70.613695</ele>
        <time>2022-07-11T23:07:54.753Z</time>
      </trkpt>
      <trkpt lat="44.74731" lon="-0.23442">
        <ele>72.584158</ele>
        <time>2022-07-11T23:08:13.293Z</time>
      </trkpt>
      <trkpt lat="44.74757" lon="-0.23534">
        <ele>74.750062</ele>
        <time>2022-07-11T23:08:36.965Z</time>
      </trkpt>
      <trkpt lat="44.74852" lon="-0.23784">
        <ele>82.943446</ele>
        <time>2022-07-11T23:09:48.888Z</time>
      </trkpt>
      <trkpt lat="44.74899" lon="-0.23883">
        <ele>84.891134</ele>
        <time>2022-07-11T23:10:13.133Z</time>
      </trkpt>
      <trkpt lat="44.7491" lon="-0.23871">
        <ele>85.202596</ele>
        <time>2022-07-11T23:10:17.309Z</time>
      </trkpt>
      <trkpt lat="44.74899" lon="-0.23883">
        <ele>85.514058</ele>
        <time>2022-07-11T23:10:20.242Z</time>
      </trkpt>
      <trkpt lat="44.74715" lon="-0.24048">
        <ele>88.824603</ele>
        <time>2022-07-11T23:11:09.823Z</time>
      </trkpt>
      <trkpt lat="44.74683" lon="-0.24097">
        <ele>89.142546</ele>
        <time>2022-07-11T23:11:20.384Z</time>
      </trkpt>
      <trkpt lat="44.7466" lon="-0.24165">
        <ele>88.861932</ele>
        <time>2022-07-11T23:11:32.298Z</time>
      </trkpt>
      <trkpt lat="44.7452" lon="-0.24799">
        <ele>85.556759</ele>
        <time>2022-07-11T23:12:47.930Z</time>
      </trkpt>
      <trkpt lat="44.74498" lon="-0.24879">
        <ele>84.354359</ele>
        <time>2022-07-11T23:12:57.148Z</time>
      </trkpt>
      <trkpt lat="44.74473" lon="-0.24939">
        <ele>83.38252</ele>
        <time>2022-07-11T23:13:04.340Z</time>
      </trkpt>
      <trkpt lat="44.74442" lon="-0.24992">
        <ele>82.401899</ele>
        <time>2022-07-11T23:13:11.414Z</time>
      </trkpt>
      <trkpt lat="44.74329" lon="-0.25116">
        <ele>79.150326</ele>
        <time>2022-07-11T23:13:31.425Z</time>
      </trkpt>
      <trkpt lat="44.73924" lon="-0.25545">
        <ele>71.117733</ele>
        <time>2022-07-11T23:14:48.117Z</time>
      </trkpt>
      <trkpt lat="44.73834" lon="-0.25634">
        <ele>70.096414</ele>
        <time>2022-07-11T23:15:06.590Z</time>
      </trkpt>
      <trkpt lat="44.73805" lon="-0.25647">
        <ele>69.942701</ele>
        <time>2022-07-11T23:15:11.751Z</time>
      </trkpt>
      <trkpt lat="44.73536" lon="-0.25696">
        <ele>68.653912</ele>
        <time>2022-07-11T23:15:56.806Z</time>
      </trkpt>
      <trkpt lat="44.73503" lon="-0.25722">
        <ele>68.484894</ele>
        <time>2022-07-11T23:16:03.347Z</time>
      </trkpt>
      <trkpt lat="44.73486" lon="-0.25755">
        <ele>68.489518</ele>
        <time>2022-07-11T23:16:08.419Z</time>
      </trkpt>
      <trkpt lat="44.7347" lon="-0.25735">
        <ele>68.494856</ele>
        <time>2022-07-11T23:16:12.344Z</time>
      </trkpt>
      <trkpt lat="44.73465" lon="-0.25721">
        <ele>68.497662</ele>
        <time>2022-07-11T23:16:14.406Z</time>
      </trkpt>
      <trkpt lat="44.73454" lon="-0.25483">
        <ele>68.36769</ele>
        <time>2022-07-11T23:16:46.662Z</time>
      </trkpt>
      <trkpt lat="44.73438" lon="-0.25406">
        <ele>68.189272</ele>
        <time>2022-07-11T23:16:56.944Z</time>
      </trkpt>
      <trkpt lat="44.73422" lon="-0.25368">
        <ele>68.088026</ele>
        <time>2022-07-11T23:17:02.654Z</time>
      </trkpt>
      <trkpt lat="44.73415" lon="-0.25364">
        <ele>68.066826</ele>
        <time>2022-07-11T23:17:03.807Z</time>
      </trkpt>
      <trkpt lat="44.73296" lon="-0.25391">
        <ele>67.080777</ele>
        <time>2022-07-11T23:17:23.922Z</time>
      </trkpt>
      <trkpt lat="44.73253" lon="-0.25424">
        <ele>66.57764</ele>
        <time>2022-07-11T23:17:31.968Z</time>
      </trkpt>
      <trkpt lat="44.7315" lon="-0.25467">
        <ele>65.940957</ele>
        <time>2022-07-11T23:17:49.752Z</time>
      </trkpt>
      <trkpt lat="44.7313" lon="-0.25301">
        <ele>65.582736</ele>
        <time>2022-07-11T23:18:10.718Z</time>
      </trkpt>
      <trkpt lat="44.73114" lon="-0.2522">
        <ele>65.582736</ele>
        <time>2022-07-11T23:18:23.945Z</time>
      </trkpt>
      <trkpt lat="44.73098" lon="-0.25171">
        <ele>65.582736</ele>
        <time>2022-07-11T23:18:32.431Z</time>
      </trkpt>
      <trkpt lat="44.73055" lon="-0.25057">
        <ele>65.582736</ele>
        <time>2022-07-11T23:18:52.838Z</time>
      </trkpt>
    </trkseg>
  </trk>
</gpx>